Observation data for Lomax on 04/23/2019      Previous  Date       Current Mesonet Observations  Soil Data  Daily Summary Page  Observations in Plain Language
KLO1 230500Z 08004KT 19/15 A2999 RMK A01 T01880153  RH  080%=      5-min Rain = 0
KLO1 230501Z 07004KT 19/15 A2999 RMK A01 T01880153  RH  080%=      5-min Rain = 0
KLO1 230502Z 06004KT 19/15 A2999 RMK A01 T01880153  RH  080%=      5-min Rain = 0
KLO1 230503Z 06004KT 19/15 A2999 RMK A01 T01880153  RH  080%=      5-min Rain = 0
KLO1 230504Z 06003KT 19/15 A2999 RMK A01 T01880154  RH  081%=      5-min Rain = 0
KLO1 230505Z 06004KT 19/15 A2999 RMK A01 T01880153  RH  080%=      5-min Rain = 0
KLO1 230506Z 06005KT 19/15 A2999 RMK A01 T01870152  RH  080%=      5-min Rain = 0
KLO1 230507Z 05004KT 19/15 A30 RMK A01 T01870152  RH  080%=      5-min Rain = 0
KLO1 230508Z 04004KT 19/15 A30 RMK A01 T01870152  RH  080%=      5-min Rain = 0
KLO1 230509Z 03004KT 19/15 A2999 RMK A01 T01870152  RH  080%=      5-min Rain = 0
KLO1 230510Z 03004KT 19/15 A2999 RMK A01 T01870152  RH  080%=      5-min Rain = 0
KLO1 230511Z 03005KT 19/15 A2999 RMK A01 T01870151  RH  080%=      5-min Rain = 0
KLO1 230512Z 03006KT 19/15 A30 RMK A01 T01870151  RH  079%=      5-min Rain = 0
KLO1 230513Z 03005KT 19/15 A30 RMK A01 T01870151  RH  079%=      5-min Rain = 0
KLO1 230514Z 03005KT 19/15 A30 RMK A01 T01870151  RH  079%=      5-min Rain = 0
KLO1 230515Z 03005KT 19/15 A30 RMK A01 T01870150  RH  079%=      5-min Rain = 0
KLO1 230516Z 04005KT 19/15 A30 RMK A01 T01870150  RH  079%=      5-min Rain = 0
KLO1 230517Z 04005KT 19/15 A30 RMK A01 T01870150  RH  079%=      5-min Rain = 0
KLO1 230518Z 04006KT 19/15 A2999 RMK A01 T01870150  RH  079%=      5-min Rain = 0
KLO1 230519Z 04006KT 19/15 A2999 RMK A01 T01870150  RH  079%=      5-min Rain = 0
KLO1 230520Z 05006KT 19/15 A2999 RMK A01 T01880151  RH  079%=      5-min Rain = 0
KLO1 230521Z 05006KT 19/15 A2999 RMK A01 T01870150  RH  079%=      5-min Rain = 0
KLO1 230522Z 04005KT 19/15 A2999 RMK A01 T01870150  RH  079%=      5-min Rain = 0
KLO1 230523Z 04005KT 19/15 A2999 RMK A01 T01870150  RH  079%=      5-min Rain = 0
KLO1 230524Z 04005KT 19/15 A2999 RMK A01 T01870150  RH  079%=      5-min Rain = 0
KLO1 230525Z 04004KT 19/15 A2999 RMK A01 T01870150  RH  079%=      5-min Rain = 0
KLO1 230526Z 04004KT 19/15 A2999 RMK A01 T01870150  RH  079%=      5-min Rain = 0
KLO1 230527Z 05004KT 19/15 A30 RMK A01 T01870150  RH  079%=      5-min Rain = 0
KLO1 230528Z 04005KT 19/15 A30 RMK A01 T01870150  RH  079%=      5-min Rain = 0
KLO1 230529Z 04005KT 19/15 A2999 RMK A01 T01870150  RH  079%=      5-min Rain = 0
KLO1 230530Z 03005KT 19/15 A2999 RMK A01 T01870150  RH  079%=      5-min Rain = 0
KLO1 230531Z 03005KT 19/15 A2999 RMK A01 T01870150  RH  079%=      5-min Rain = 0
KLO1 230532Z 02005KT 19/15 A2999 RMK A01 T01870150  RH  079%=      5-min Rain = 0
KLO1 230533Z 04005KT 19/15 A2999 RMK A01 T01870150  RH  079%=      5-min Rain = 0
KLO1 230534Z 04006KT 19/15 A2999 RMK A01 T01870150  RH  079%=      5-min Rain = 0
KLO1 230535Z 04007KT 19/15 A2999 RMK A01 T01870150  RH  079%=      5-min Rain = 0
KLO1 230536Z 04007KT 19/15 A2999 RMK A01 T01870150  RH  079%=      5-min Rain = 0
KLO1 230537Z 04006KT 19/15 A2999 RMK A01 T01880150  RH  079%=      5-min Rain = 0
KLO1 230538Z 04007KT 19/15 A2999 RMK A01 T01870150  RH  079%=      5-min Rain = 0
KLO1 230539Z 05006KT 19/15 A2999 RMK A01 T01870150  RH  079%=      5-min Rain = 0
KLO1 230540Z 05006KT 19/15 A2999 RMK A01 T01870150  RH  079%=      5-min Rain = 0
KLO1 230541Z 05007KT 19/15 A2999 RMK A01 T01870150  RH  079%=      5-min Rain = 0
KLO1 230542Z 05006KT 19/15 A2999 RMK A01 T01870150  RH  079%=      5-min Rain = 0
KLO1 230543Z 05006KT 19/15 A2999 RMK A01 T01870150  RH  079%=      5-min Rain = 0
KLO1 230544Z 05006KT 19/15 A2999 RMK A01 T01870149  RH  079%=      5-min Rain = 0
KLO1 230545Z 06006KT 19/15 A2999 RMK A01 T01870149  RH  078%=      5-min Rain = 0
KLO1 230546Z 07005KT 19/15 A2999 RMK A01 T01870149  RH  078%=      5-min Rain = 0
KLO1 230547Z 07005KT 19/15 A2999 RMK A01 T01870149  RH  079%=      5-min Rain = 0
KLO1 230548Z 06005KT 19/15 A2999 RMK A01 T01870149  RH  078%=      5-min Rain = 0
KLO1 230549Z 06006KT 19/15 A2999 RMK A01 T01870148  RH  078%=      5-min Rain = 0
KLO1 230550Z 06006KT 19/15 A2999 RMK A01 T01870148  RH  078%=      5-min Rain = 0
KLO1 230551Z 06006KT 19/15 A2999 RMK A01 T01870148  RH  078%=      5-min Rain = 0
KLO1 230552Z 06007KT 19/15 A2999 RMK A01 T01860148  RH  078%=      5-min Rain = 0
KLO1 230553Z 06007KT 19/15 A2999 RMK A01 T01860148  RH  078%=      5-min Rain = 0
KLO1 230554Z 06006KT 19/15 A2999 RMK A01 T01860148  RH  078%=      5-min Rain = 0
KLO1 230555Z 06005KT 19/15 A2999 RMK A01 T01860148  RH  078%=      5-min Rain = 0
KLO1 230556Z 07005KT 19/15 A2999 RMK A01 T01860148  RH  078%=      5-min Rain = 0
KLO1 230557Z 07006KT 19/15 A2999 RMK A01 T01860148  RH  078%=      5-min Rain = 0
KLO1 230558Z 08005KT 19/15 A2999 RMK A01 T01860148  RH  078%=      5-min Rain = 0
KLO1 230559Z 08005KT 19/15 A2999 RMK A01 T01860148  RH  078%=      5-min Rain = 0
KLO1 230600Z 09004KT 19/15 A2999 RMK A01 T01860148  RH  079%=      5-min Rain = 0
KLO1 230601Z 08005KT 19/15 A2999 RMK A01 T01860148  RH  079%=      5-min Rain = 0
KLO1 230602Z 09004KT 19/15 A2998 RMK A01 T01860148  RH  079%=      5-min Rain = 0
KLO1 230603Z 09005KT 19/15 A2998 RMK A01 T01860148  RH  079%=      5-min Rain = 0
KLO1 230604Z 10005KT 19/15 A2998 RMK A01 T01860148  RH  079%=      5-min Rain = 0
KLO1 230605Z 09005KT 19/15 A2998 RMK A01 T01870148  RH  078%=      5-min Rain = 0
KLO1 230606Z 09005KT 19/15 A2998 RMK A01 T01860148  RH  078%=      5-min Rain = 0
KLO1 230607Z 08006KT 19/15 A2998 RMK A01 T01870148  RH  078%=      5-min Rain = 0
KLO1 230608Z 08005KT 19/15 A2998 RMK A01 T01860148  RH  078%=      5-min Rain = 0
KLO1 230609Z 08005KT 19/15 A2998 RMK A01 T01860148  RH  078%=      5-min Rain = 0
KLO1 230610Z 08006KT 19/15 A2998 RMK A01 T01860147  RH  078%=      5-min Rain = 0
KLO1 230611Z 09006KT 19/15 A2998 RMK A01 T01860148  RH  078%=      5-min Rain = 0
KLO1 230612Z 08005KT 19/15 A2998 RMK A01 T01850147  RH  078%=      5-min Rain = 0
KLO1 230613Z 09005KT 19/15 A2998 RMK A01 T01860148  RH  079%=      5-min Rain = 0
KLO1 230614Z 08005KT 19/15 A2998 RMK A01 T01860148  RH  079%=      5-min Rain = 0
KLO1 230615Z 09005KT 19/15 A2998 RMK A01 T01850147  RH  079%=      5-min Rain = 0
KLO1 230616Z 09005KT 19/15 A2998 RMK A01 T01850147  RH  079%=      5-min Rain = 0
KLO1 230617Z 09006KT 19/15 A2998 RMK A01 T01850148  RH  079%=      5-min Rain = 0
KLO1 230618Z 08006KT 19/15 A2998 RMK A01 T01850147  RH  079%=      5-min Rain = 0
KLO1 230619Z 09007KT 19/15 A2998 RMK A01 T01850147  RH  079%=      5-min Rain = 0
KLO1 230620Z 09008KT 19/15 A2998 RMK A01 T01850147  RH  079%=      5-min Rain = 0
KLO1 230621Z 09007KT 19/15 A2998 RMK A01 T01850147  RH  079%=      5-min Rain = 0
KLO1 230622Z 08007KT 19/15 A2998 RMK A01 T01850147  RH  079%=      5-min Rain = 0
KLO1 230623Z 08006KT 19/15 A2998 RMK A01 T01850147  RH  079%=      5-min Rain = 0
KLO1 230624Z 09006KT 18/15 A2998 RMK A01 T01840147  RH  079%=      5-min Rain = 0
KLO1 230625Z 09006KT 18/15 A2998 RMK A01 T01840147  RH  079%=      5-min Rain = 0
KLO1 230626Z 08005KT 18/15 A2998 RMK A01 T01840147  RH  079%=      5-min Rain = 0
KLO1 230627Z 08005KT 18/15 A2998 RMK A01 T01840147  RH  079%=      5-min Rain = 0
KLO1 230628Z 09005KT 18/15 A2998 RMK A01 T01840147  RH  079%=      5-min Rain = 0
KLO1 230629Z 09005KT 18/15 A2998 RMK A01 T01840147  RH  079%=      5-min Rain = 0
KLO1 230630Z 09006KT 18/15 A2998 RMK A01 T01840148  RH  079%=      5-min Rain = 0
KLO1 230631Z 09006KT 18/15 A2998 RMK A01 T01840147  RH  079%=      5-min Rain = 0
KLO1 230632Z 10006KT 18/15 A2998 RMK A01 T01840147  RH  079%=      5-min Rain = 0
KLO1 230633Z 10006KT 18/15 A2998 RMK A01 T01840147  RH  079%=      5-min Rain = 0
KLO1 230634Z 10005KT 18/15 A2998 RMK A01 T01840147  RH  079%=      5-min Rain = 0
KLO1 230635Z 10005KT 18/15 A2998 RMK A01 T01840147  RH  079%=      5-min Rain = 0
KLO1 230636Z 10005KT 18/15 A2998 RMK A01 T01840148  RH  079%=      5-min Rain = 0
KLO1 230637Z 11005KT 18/15 A2998 RMK A01 T01840148  RH  079%=      5-min Rain = 0
KLO1 230638Z 11004KT 18/15 A2998 RMK A01 T01840148  RH  079%=      5-min Rain = 0
KLO1 230639Z 11005KT 18/15 A2998 RMK A01 T01840147  RH  079%=      5-min Rain = 0
KLO1 230640Z 11004KT 18/15 A2998 RMK A01 T01840148  RH  079%=      5-min Rain = 0
KLO1 230641Z 11004KT 19/15 A2998 RMK A01 T01850148  RH  079%=      5-min Rain = 0
KLO1 230642Z 10005KT 19/15 A2998 RMK A01 T01850148  RH  079%=      5-min Rain = 0
KLO1 230643Z 11004KT 19/15 A2998 RMK A01 T01850148  RH  079%=      5-min Rain = 0
KLO1 230644Z 11004KT 19/15 A2998 RMK A01 T01850148  RH  079%=      5-min Rain = 0
KLO1 230645Z 11004KT 19/15 A2998 RMK A01 T01850148  RH  079%=      5-min Rain = 0
KLO1 230646Z 11004KT 19/15 A2998 RMK A01 T01850148  RH  079%=      5-min Rain = 0
KLO1 230647Z 11003KT 19/15 A2998 RMK A01 T01850148  RH  079%=      5-min Rain = 0
KLO1 230648Z 11004KT 19/15 A2998 RMK A01 T01850148  RH  079%=      5-min Rain = 0
KLO1 230649Z 10004KT 19/15 A2998 RMK A01 T01850148  RH  079%=      5-min Rain = 0
KLO1 230650Z 10003KT 19/15 A2998 RMK A01 T01850148  RH  079%=      5-min Rain = 0
KLO1 230651Z 10004KT 18/15 A2998 RMK A01 T01840149  RH  080%=      5-min Rain = 0
KLO1 230652Z 10004KT 18/15 A2998 RMK A01 T01840149  RH  080%=      5-min Rain = 0
KLO1 230653Z 10004KT 19/15 A2998 RMK A01 T01850149  RH  080%=      5-min Rain = 0
KLO1 230654Z 09004KT 19/15 A2998 RMK A01 T01850149  RH  080%=      5-min Rain = 0
KLO1 230655Z 09005KT 18/15 A2998 RMK A01 T01840149  RH  080%=      5-min Rain = 0
KLO1 230656Z 09004KT 18/15 A2998 RMK A01 T01840149  RH  080%=      5-min Rain = 0
KLO1 230657Z 10004KT 18/15 A2998 RMK A01 T01840149  RH  080%=      5-min Rain = 0
KLO1 230658Z 10004KT 18/15 A2998 RMK A01 T01840149  RH  080%=      5-min Rain = 0
KLO1 230659Z 09004KT 18/15 A2998 RMK A01 T01840149  RH  080%=      5-min Rain = 0
KLO1 230700Z 09004KT 18/15 A2998 RMK A01 T01840149  RH  080%=      5-min Rain = 0
KLO1 230701Z 09004KT 18/15 A2998 RMK A01 T01840149  RH  080%=      5-min Rain = 0
KLO1 230702Z 09004KT 18/15 A2998 RMK A01 T01840150  RH  080%=      5-min Rain = 0
KLO1 230703Z 09004KT 18/15 A2998 RMK A01 T01840150  RH  080%=      5-min Rain = 0
KLO1 230704Z 09003KT 18/15 A2998 RMK A01 T01840150  RH  081%=      5-min Rain = 0
KLO1 230705Z 10003KT 18/15 A2998 RMK A01 T01840150  RH  081%=      5-min Rain = 0
KLO1 230706Z 10004KT 18/15 A2998 RMK A01 T01840150  RH  081%=      5-min Rain = 0
KLO1 230707Z 10004KT 18/15 A2998 RMK A01 T01840150  RH  080%=      5-min Rain = 0
KLO1 230708Z 10003KT 18/15 A2998 RMK A01 T01840150  RH  080%=      5-min Rain = 0
KLO1 230709Z 10003KT 18/15 A2998 RMK A01 T01840150  RH  080%=      5-min Rain = 0
KLO1 230710Z 10003KT 18/15 A2998 RMK A01 T01840150  RH  080%=      5-min Rain = 0
KLO1 230711Z 10003KT 18/15 A2998 RMK A01 T01840150  RH  080%=      5-min Rain = 0
KLO1 230712Z 11004KT 18/15 A2998 RMK A01 T01840150  RH  080%=      5-min Rain = 0
KLO1 230713Z 11003KT 18/15 A2998 RMK A01 T01840150  RH  080%=      5-min Rain = 0
KLO1 230714Z 10002KT 18/15 A2998 RMK A01 T01840150  RH  080%=      5-min Rain = 0
KLO1 230715Z 10002KT 18/15 A2998 RMK A01 T01840150  RH  080%=      5-min Rain = 0
KLO1 230716Z 11002KT 18/15 A2998 RMK A01 T01840150  RH  080%=      5-min Rain = 0
KLO1 230717Z 10002KT 18/15 A2998 RMK A01 T01840150  RH  080%=      5-min Rain = 0
KLO1 230718Z 11002KT 18/15 A2998 RMK A01 T01840150  RH  080%=      5-min Rain = 0
KLO1 230719Z 11002KT 18/15 A2998 RMK A01 T01840150  RH  080%=      5-min Rain = 0
KLO1 230720Z 10003KT 19/15 A2998 RMK A01 T01850150  RH  080%=      5-min Rain = 0
KLO1 230721Z 10002KT 19/15 A2998 RMK A01 T01850150  RH  080%=      5-min Rain = 0
KLO1 230722Z 10002KT 19/15 A2998 RMK A01 T01850150  RH  080%=      5-min Rain = 0
KLO1 230723Z 09003KT 18/15 A2998 RMK A01 T01840150  RH  080%=      5-min Rain = 0
KLO1 230724Z 09003KT 19/15 A2998 RMK A01 T01850151  RH  080%=      5-min Rain = 0
KLO1 230725Z 09003KT 19/15 A2998 RMK A01 T01850151  RH  081%=      5-min Rain = 0
KLO1 230726Z 09003KT 19/15 A2998 RMK A01 T01850151  RH  081%=      5-min Rain = 0
KLO1 230727Z 09004KT 18/15 A2998 RMK A01 T01840150  RH  081%=      5-min Rain = 0
KLO1 230728Z 09004KT 18/15 A2998 RMK A01 T01840150  RH  081%=      5-min Rain = 0
KLO1 230729Z 09004KT 18/15 A2998 RMK A01 T01840151  RH  081%=      5-min Rain = 0
KLO1 230730Z 10003KT 18/15 A2998 RMK A01 T01840150  RH  081%=      5-min Rain = 0
KLO1 230731Z 10004KT 18/15 A2998 RMK A01 T01840150  RH  081%=      5-min Rain = 0
KLO1 230732Z 10003KT 18/15 A2998 RMK A01 T01840151  RH  081%=      5-min Rain = 0
KLO1 230733Z 10003KT 18/15 A2998 RMK A01 T01840151  RH  081%=      5-min Rain = 0
KLO1 230734Z 10003KT 18/15 A2998 RMK A01 T01840150  RH  081%=      5-min Rain = 0
KLO1 230735Z 10003KT 18/15 A2997 RMK A01 T01840150  RH  081%=      5-min Rain = 0
KLO1 230736Z 10003KT 18/15 A2997 RMK A01 T01840151  RH  081%=      5-min Rain = 0
KLO1 230737Z 11003KT 18/15 A2997 RMK A01 T01840151  RH  081%=      5-min Rain = 0
KLO1 230738Z 11003KT 18/15 A2997 RMK A01 T01840150  RH  081%=      5-min Rain = 0
KLO1 230739Z 11004KT 18/15 A2997 RMK A01 T01840150  RH  081%=      5-min Rain = 0
KLO1 230740Z 12004KT 18/15 A2998 RMK A01 T01840150  RH  080%=      5-min Rain = 0
KLO1 230741Z 12004KT 18/15 A2998 RMK A01 T01840150  RH  080%=      5-min Rain = 0
KLO1 230742Z 11004KT 19/15 A2998 RMK A01 T01850150  RH  080%=      5-min Rain = 0
KLO1 230743Z 11005KT 18/15 A2998 RMK A01 T01840150  RH  080%=      5-min Rain = 0
KLO1 230744Z 11004KT 18/15 A2998 RMK A01 T01840149  RH  080%=      5-min Rain = 0
KLO1 230745Z 11004KT 19/15 A2998 RMK A01 T01850151  RH  080%=      5-min Rain = 0
KLO1 230746Z 10004KT 19/15 A2998 RMK A01 T01850151  RH  080%=      5-min Rain = 0
KLO1 230747Z 10004KT 19/15 A2998 RMK A01 T01850150  RH  080%=      5-min Rain = 0
KLO1 230748Z 11004KT 19/15 A2998 RMK A01 T01850151  RH  080%=      5-min Rain = 0
KLO1 230749Z 12003KT 19/15 A2998 RMK A01 T01850151  RH  080%=      5-min Rain = 0
KLO1 230750Z 12004KT 19/15 A2998 RMK A01 T01850151  RH  080%=      5-min Rain = 0
KLO1 230751Z 11003KT 19/15 A2998 RMK A01 T01850151  RH  080%=      5-min Rain = 0
KLO1 230752Z 10004KT 19/15 A2998 RMK A01 T01850151  RH  080%=      5-min Rain = 0
KLO1 230753Z 11004KT 19/15 A2998 RMK A01 T01850151  RH  080%=      5-min Rain = 0
KLO1 230754Z 11004KT 19/15 A2998 RMK A01 T01850150  RH  080%=      5-min Rain = 0
KLO1 230755Z 10004KT 19/15 A2998 RMK A01 T01850150  RH  080%=      5-min Rain = 0
KLO1 230756Z 10004KT 19/15 A2998 RMK A01 T01850150  RH  080%=      5-min Rain = 0
KLO1 230757Z 10004KT 18/15 A2998 RMK A01 T01840150  RH  081%=      5-min Rain = 0
KLO1 230758Z 10004KT 19/15 A2998 RMK A01 T01850150  RH  080%=      5-min Rain = 0
KLO1 230759Z 10003KT 19/15 A2998 RMK A01 T01850150  RH  080%=      5-min Rain = 0
KLO1 230800Z 11003KT 18/15 A2998 RMK A01 T01840150  RH  080%=      5-min Rain = 0
KLO1 230801Z 10004KT 19/15 A2998 RMK A01 T01850150  RH  080%=      5-min Rain = 0
KLO1 230802Z 10003KT 19/15 A2998 RMK A01 T01850150  RH  080%=      5-min Rain = 0
KLO1 230803Z 10003KT 19/15 A2998 RMK A01 T01850149  RH  080%=      5-min Rain = 0
KLO1 230804Z 10003KT 19/15 A2998 RMK A01 T01850150  RH  080%=      5-min Rain = 0
KLO1 230805Z 11004KT 19/15 A2998 RMK A01 T01850150  RH  080%=      5-min Rain = 0
KLO1 230806Z 12005KT 19/15 A2998 RMK A01 T01850149  RH  079%=      5-min Rain = 0
KLO1 230807Z 11005KT 19/15 A2998 RMK A01 T01860149  RH  079%=      5-min Rain = 0
KLO1 230808Z 12005KT 19/15 A2998 RMK A01 T01870148  RH  078%=      5-min Rain = 0
KLO1 230809Z 12004KT 19/15 A2998 RMK A01 T01880148  RH  078%=      5-min Rain = 0
KLO1 230810Z 12004KT 19/15 A2998 RMK A01 T01880149  RH  078%=      5-min Rain = 0
KLO1 230811Z 12005KT 19/15 A2998 RMK A01 T01880149  RH  078%=      5-min Rain = 0
KLO1 230812Z 12004KT 19/15 A2997 RMK A01 T01880149  RH  078%=      5-min Rain = 0
KLO1 230813Z 12004KT 19/15 A2997 RMK A01 T01880149  RH  078%=      5-min Rain = 0
KLO1 230814Z 12004KT 19/15 A2997 RMK A01 T01880149  RH  078%=      5-min Rain = 0
KLO1 230815Z 12003KT 19/15 A2997 RMK A01 T01880149  RH  078%=      5-min Rain = 0
KLO1 230816Z 11003KT 19/15 A2997 RMK A01 T01880149  RH  078%=      5-min Rain = 0
KLO1 230817Z 11003KT 19/15 A2997 RMK A01 T01880149  RH  078%=      5-min Rain = 0
KLO1 230818Z 11003KT 19/15 A2997 RMK A01 T01880150  RH  078%=      5-min Rain = 0
KLO1 230819Z 11003KT 19/15 A2997 RMK A01 T01880149  RH  078%=      5-min Rain = 0
KLO1 230820Z 10003KT 19/15 A2997 RMK A01 T01880150  RH  078%=      5-min Rain = 0
KLO1 230821Z 10003KT 19/15 A2997 RMK A01 T01880150  RH  078%=      5-min Rain = 0
KLO1 230822Z 09003KT 19/15 A2997 RMK A01 T01880150  RH  078%=      5-min Rain = 0
KLO1 230823Z 09002KT 19/15 A2997 RMK A01 T01880149  RH  078%=      5-min Rain = 0
KLO1 230824Z 09002KT 19/15 A2997 RMK A01 T01870149  RH  079%=      5-min Rain = 0
KLO1 230825Z 10002KT 19/15 A2997 RMK A01 T01870150  RH  079%=      5-min Rain = 0
KLO1 230826Z 09002KT 19/15 A2997 RMK A01 T01870150  RH  079%=      5-min Rain = 0
KLO1 230827Z 10003KT 19/15 A2997 RMK A01 T01870149  RH  079%=      5-min Rain = 0
KLO1 230828Z 10002KT 19/15 A2997 RMK A01 T01870149  RH  079%=      5-min Rain = 0
KLO1 230829Z 09002KT 19/15 A2997 RMK A01 T01870149  RH  079%=      5-min Rain = 0
KLO1 230830Z 07002KT 19/15 A2997 RMK A01 T01870149  RH  079%=      5-min Rain = 0
KLO1 230831Z 09001KT 19/15 A2997 RMK A01 T01870150  RH  079%=      5-min Rain = 0
KLO1 230832Z 06001KT 19/15 A2997 RMK A01 T01870150  RH  079%=      5-min Rain = 0
KLO1 230833Z 05001KT 19/15 A2997 RMK A01 T01860150  RH  079%=      5-min Rain = 0
KLO1 230834Z 06001KT 19/15 A2997 RMK A01 T01860150  RH  080%=      5-min Rain = 0
KLO1 230835Z 05001KT 19/15 A2997 RMK A01 T01860150  RH  080%=      5-min Rain = 0
KLO1 230836Z 03000KT 19/15 A2997 RMK A01 T01860150  RH  080%=      5-min Rain = 0
KLO1 230837Z 02001KT 19/15 A2997 RMK A01 T01850150  RH  080%=      5-min Rain = 0
KLO1 230838Z 03001KT 19/15 A2997 RMK A01 T01850151  RH  080%=      5-min Rain = 0
KLO1 230839Z 03002KT 19/15 A2997 RMK A01 T01850152  RH  081%=      5-min Rain = 0
KLO1 230840Z 03002KT 19/15 A2997 RMK A01 T01850151  RH  080%=      5-min Rain = 0
KLO1 230841Z 02001KT 19/15 A2997 RMK A01 T01850150  RH  080%=      5-min Rain = 0
KLO1 230842Z 03002KT 19/15 A2997 RMK A01 T01850150  RH  080%=      5-min Rain = 0
KLO1 230843Z 03001KT 18/15 A2997 RMK A01 T01840150  RH  080%=      5-min Rain = 0
KLO1 230844Z 03001KT 19/15 A2997 RMK A01 T01850150  RH  080%=      5-min Rain = 0
KLO1 230845Z 01000KT 19/15 A2997 RMK A01 T01850150  RH  080%=      5-min Rain = 0
KLO1 230846Z 02000KT 19/15 A2997 RMK A01 T01850150  RH  080%=      5-min Rain = 0
KLO1 230847Z 02002KT 18/15 A2997 RMK A01 T01840150  RH  080%=      5-min Rain = 0
KLO1 230848Z 03002KT 18/15 A2997 RMK A01 T01840150  RH  081%=      5-min Rain = 0
KLO1 230849Z 01003KT 18/15 A2997 RMK A01 T01840151  RH  081%=      5-min Rain = 0
KLO1 230850Z 01002KT 18/15 A2997 RMK A01 T01840151  RH  081%=      5-min Rain = 0
KLO1 230851Z 01003KT 18/15 A2997 RMK A01 T01830150  RH  081%=      5-min Rain = 0
KLO1 230852Z 01003KT 18/15 A2997 RMK A01 T01830150  RH  081%=      5-min Rain = 0
KLO1 230853Z 01002KT 18/15 A2997 RMK A01 T01820150  RH  081%=      5-min Rain = 0
KLO1 230854Z 01003KT 18/15 A2997 RMK A01 T01820150  RH  082%=      5-min Rain = 0
KLO1 230855Z 01003KT 18/15 A2997 RMK A01 T01820150  RH  081%=      5-min Rain = 0
KLO1 230856Z 01003KT 18/15 A2997 RMK A01 T01820150  RH  082%=      5-min Rain = 0
KLO1 230857Z 01003KT 18/15 A2997 RMK A01 T01820150  RH  082%=      5-min Rain = 0
KLO1 230858Z 02003KT 18/15 A2997 RMK A01 T01820151  RH  082%=      5-min Rain = 0
KLO1 230859Z 03003KT 18/15 A2997 RMK A01 T01820151  RH  082%=      5-min Rain = 0
KLO1 230900Z 03002KT 18/15 A2997 RMK A01 T01810151  RH  082%=      5-min Rain = 0
KLO1 230901Z 03002KT 18/15 A2997 RMK A01 T01810151  RH  082%=      5-min Rain = 0
KLO1 230902Z 02003KT 18/15 A2997 RMK A01 T01810151  RH  082%=      5-min Rain = 0
KLO1 230903Z 02003KT 18/15 A2997 RMK A01 T01810151  RH  083%=      5-min Rain = 0
KLO1 230904Z 02003KT 18/15 A2997 RMK A01 T01810151  RH  083%=      5-min Rain = 0
KLO1 230905Z 02003KT 18/15 A2997 RMK A01 T01800151  RH  083%=      5-min Rain = 0
KLO1 230906Z 01002KT 18/15 A2997 RMK A01 T01800151  RH  083%=      5-min Rain = 0
KLO1 230907Z 01002KT 18/15 A2997 RMK A01 T01800151  RH  083%=      5-min Rain = 0
KLO1 230908Z 00002KT 18/15 A2997 RMK A01 T01790151  RH  084%=      5-min Rain = 0
KLO1 230909Z 01002KT 18/15 A2997 RMK A01 T01790151  RH  084%=      5-min Rain = 0
KLO1 230910Z 01002KT 18/15 A2997 RMK A01 T01800151  RH  083%=      5-min Rain = 0
KLO1 230911Z 01002KT 18/15 A2997 RMK A01 T01800151  RH  084%=      5-min Rain = 0
KLO1 230912Z 01002KT 18/15 A2997 RMK A01 T01800151  RH  084%=      5-min Rain = 0
KLO1 230913Z 00002KT 18/15 A2997 RMK A01 T01800151  RH  084%=      5-min Rain = 0
KLO1 230914Z 00002KT 18/15 A2997 RMK A01 T01800151  RH  083%=      5-min Rain = 0
KLO1 230915Z 34003KT 18/15 A2997 RMK A01 T01800151  RH  083%=      5-min Rain = 0
KLO1 230916Z 34003KT 18/15 A2997 RMK A01 T01800151  RH  083%=      5-min Rain = 0
KLO1 230917Z 35003KT 18/15 A2997 RMK A01 T01810151  RH  083%=      5-min Rain = 0
KLO1 230918Z 36003KT 18/15 A2997 RMK A01 T01800151  RH  083%=      5-min Rain = 0
KLO1 230919Z 35002KT 18/15 A2997 RMK A01 T01800151  RH  083%=      5-min Rain = 0
KLO1 230920Z 36002KT 18/15 A2997 RMK A01 T01790152  RH  084%=      5-min Rain = 0
KLO1 230921Z 35004KT 18/15 A2998 RMK A01 T01790152  RH  084%=      5-min Rain = 0
KLO1 230922Z 35004KT 18/15 A2998 RMK A01 T01790152  RH  084%=      5-min Rain = 0
KLO1 230923Z 01004KT 18/15 A2998 RMK A01 T01780153  RH  085%=      5-min Rain = 0
KLO1 230924Z 35004KT 18/15 A2998 RMK A01 T01780153  RH  085%=      5-min Rain = 0
KLO1 230925Z 35003KT 18/15 A2998 RMK A01 T01770153  RH  086%=      5-min Rain = 0
KLO1 230926Z 00003KT 18/15 A2998 RMK A01 T01760154  RH  087%=      5-min Rain = 0
KLO1 230927Z 00004KT 18/15 A2998 RMK A01 T01760154  RH  087%=      5-min Rain = 0
KLO1 230928Z 35004KT 18/15 A2998 RMK A01 T01750154  RH  087%=      5-min Rain = 0
KLO1 230929Z 35004KT 17/15 A2998 RMK A01 T01740154  RH  088%=      5-min Rain = 0
KLO1 230930Z 35004KT 17/15 A2998 RMK A01 T01740154  RH  088%=      5-min Rain = 0
KLO1 230931Z 35004KT 17/16 A2998 RMK A01 T01730155  RH  089%=      5-min Rain = 0
KLO1 230932Z 34005KT 17/16 A2998 RMK A01 T01730155  RH  089%=      5-min Rain = 0
KLO1 230933Z 35005KT 17/16 A2998 RMK A01 T01720155  RH  090%=      5-min Rain = 0
KLO1 230934Z 35004KT 17/16 A2998 RMK A01 T01720155  RH  090%=      5-min Rain = 0
KLO1 230935Z 36004KT 17/15 A2998 RMK A01 T01710154  RH  090%=      5-min Rain = 0
KLO1 230936Z 00004KT 17/15 A2998 RMK A01 T01700154  RH  090%=      5-min Rain = 0
KLO1 230937Z 01003KT 17/15 A2998 RMK A01 T01700154  RH  091%=      5-min Rain = 0
KLO1 230938Z 01005KT 17/16 A2998 RMK A01 T01700155  RH  091%=      5-min Rain = 0
KLO1 230939Z 01004KT 17/16 A2998 RMK A01 T01700155  RH  091%=      5-min Rain = 0
KLO1 230940Z 01003KT 17/16 A2998 RMK A01 T01690155  RH  091%=      5-min Rain = 0
KLO1 230941Z 01003KT 17/16 A2998 RMK A01 T01690155  RH  091%=      5-min Rain = 0
KLO1 230942Z 03002KT 17/16 A2998 RMK A01 T01690155  RH  092%=      5-min Rain = 0
KLO1 230943Z 03003KT 17/16 A2998 RMK A01 T01690155  RH  092%=      5-min Rain = 0
KLO1 230944Z 03002KT 17/16 A2998 RMK A01 T01680155  RH  092%=      5-min Rain = 0
KLO1 230945Z 02002KT 17/16 A2998 RMK A01 T01680156  RH  092%=      5-min Rain = 0
KLO1 230946Z 02003KT 17/16 A2998 RMK A01 T01680156  RH  092%=      5-min Rain = 0
KLO1 230947Z 01002KT 17/16 A2998 RMK A01 T01680156  RH  092%=      5-min Rain = 0
KLO1 230948Z 01003KT 17/16 A2998 RMK A01 T01680156  RH  092%=      5-min Rain = 0
KLO1 230949Z 01003KT 17/16 A2998 RMK A01 T01680156  RH  093%=      5-min Rain = 0
KLO1 230950Z 01003KT 17/16 A2998 RMK A01 T01680156  RH  093%=      5-min Rain = 0
KLO1 230951Z 01002KT 17/16 A2998 RMK A01 T01680157  RH  093%=      5-min Rain = 0
KLO1 230952Z 01002KT 17/16 A2998 RMK A01 T01680157  RH  093%=      5-min Rain = 0
KLO1 230953Z 01002KT 17/16 A2998 RMK A01 T01680157  RH  093%=      5-min Rain = 0
KLO1 230954Z 01003KT 17/16 A2998 RMK A01 T01680157  RH  093%=      5-min Rain = 0
KLO1 230955Z 01002KT 17/16 A2998 RMK A01 T01680157  RH  093%=      5-min Rain = 0
KLO1 230956Z 01003KT 17/16 A2998 RMK A01 T01680157  RH  093%=      5-min Rain = 0
KLO1 230957Z 02003KT 17/16 A2998 RMK A01 T01680157  RH  093%=      5-min Rain = 0
KLO1 230958Z 01003KT 17/16 A2998 RMK A01 T01680158  RH  094%=      5-min Rain = 0
KLO1 230959Z 01003KT 17/16 A2998 RMK A01 T01680158  RH  094%=      5-min Rain = 0
KLO1 231000Z 02003KT 17/16 A2998 RMK A01 T01680158  RH  094%=      5-min Rain = 0
KLO1 231001Z 01003KT 17/16 A2998 RMK A01 T01680158  RH  094%=      5-min Rain = 0
KLO1 231002Z 02003KT 17/16 A2998 RMK A01 T01680158  RH  094%=      5-min Rain = 0
KLO1 231003Z 02003KT 17/16 A2998 RMK A01 T01680158  RH  094%=      5-min Rain = 0
KLO1 231004Z 03003KT 17/16 A2998 RMK A01 T01670158  RH  094%=      5-min Rain = 0
KLO1 231005Z 03003KT 17/16 A2998 RMK A01 T01680158  RH  094%=      5-min Rain = 0
KLO1 231006Z 03002KT 17/16 A2998 RMK A01 T01680159  RH  094%=      5-min Rain = 0
KLO1 231007Z 03003KT 17/16 A2998 RMK A01 T01680158  RH  094%=      5-min Rain = 0
KLO1 231008Z 03003KT 17/16 A2998 RMK A01 T01670158  RH  094%=      5-min Rain = 0
KLO1 231009Z 03003KT 17/16 A2998 RMK A01 T01670158  RH  094%=      5-min Rain = 0.01
KLO1 231010Z 02002KT 17/16 A2998 RMK A01 T01670158  RH  094%=      5-min Rain = 0
KLO1 231011Z 02002KT 17/16 A2998 RMK A01 T01670158  RH  094%=      5-min Rain = 0
KLO1 231012Z 02003KT 17/16 A2998 RMK A01 T01670158  RH  094%=      5-min Rain = 0
KLO1 231013Z 01003KT 17/16 A2998 RMK A01 T01670158  RH  094%=      5-min Rain = 0
KLO1 231014Z 01003KT 17/16 A2998 RMK A01 T01670158  RH  094%=      5-min Rain = 0
KLO1 231015Z 01003KT 17/16 A2998 RMK A01 T01670158  RH  095%=      5-min Rain = 0
KLO1 231016Z 01003KT 17/16 A2998 RMK A01 T01670158  RH  095%=      5-min Rain = 0
KLO1 231017Z 01002KT 17/16 A2998 RMK A01 T01670159  RH  095%=      5-min Rain = 0
KLO1 231018Z 01002KT 17/16 A2998 RMK A01 T01670158  RH  095%=      5-min Rain = 0
KLO1 231019Z 01002KT 17/16 A2998 RMK A01 T01670158  RH  095%=      5-min Rain = 0
KLO1 231020Z 01002KT 17/16 A2998 RMK A01 T01670158  RH  095%=      5-min Rain = 0
KLO1 231021Z 01002KT 17/16 A2998 RMK A01 T01670159  RH  095%=      5-min Rain = 0
KLO1 231022Z 01003KT 17/16 A2998 RMK A01 T01670159  RH  095%=      5-min Rain = 0
KLO1 231023Z 00003KT 17/16 A2998 RMK A01 T01670159  RH  095%=      5-min Rain = 0
KLO1 231024Z 01003KT 17/16 A2998 RMK A01 T01670159  RH  095%=      5-min Rain = 0
KLO1 231025Z 01003KT 17/16 A2998 RMK A01 T01670159  RH  095%=      5-min Rain = 0
KLO1 231026Z 01003KT 17/16 A2998 RMK A01 T01670159  RH  095%=      5-min Rain = 0
KLO1 231027Z 00003KT 17/16 A2998 RMK A01 T01670159  RH  095%=      5-min Rain = 0
KLO1 231028Z 00003KT 17/16 A2998 RMK A01 T01670159  RH  095%=      5-min Rain = 0
KLO1 231029Z 00003KT 17/16 A2998 RMK A01 T01670159  RH  095%=      5-min Rain = 0
KLO1 231030Z 36003KT 17/16 A2998 RMK A01 T01670159  RH  095%=      5-min Rain = 0
KLO1 231031Z 36003KT 17/16 A2998 RMK A01 T01670159  RH  095%=      5-min Rain = 0
KLO1 231032Z 36002KT 17/16 A2998 RMK A01 T01670159  RH  095%=      5-min Rain = 0
KLO1 231033Z 36002KT 17/16 A2998 RMK A01 T01660159  RH  095%=      5-min Rain = 0
KLO1 231034Z 36002KT 17/16 A2998 RMK A01 T01660159  RH  095%=      5-min Rain = 0.01
KLO1 231035Z 00002KT 17/16 A2998 RMK A01 T01660159  RH  095%=      5-min Rain = 0
KLO1 231036Z 00002KT 17/16 A2998 RMK A01 T01660159  RH  095%=      5-min Rain = 0
KLO1 231037Z 01003KT 17/16 A2998 RMK A01 T01660159  RH  096%=      5-min Rain = 0
KLO1 231038Z 00003KT 17/16 A2998 RMK A01 T01660159  RH  096%=      5-min Rain = 0
KLO1 231039Z 36002KT 17/16 A2998 RMK A01 T01660159  RH  096%=      5-min Rain = 0
KLO1 231040Z 00002KT 17/16 A2998 RMK A01 T01660159  RH  096%=      5-min Rain = 0
KLO1 231041Z 01002KT 17/16 A2998 RMK A01 T01660159  RH  096%=      5-min Rain = 0
KLO1 231042Z 01002KT 17/16 A2998 RMK A01 T01660159  RH  096%=      5-min Rain = 0
KLO1 231043Z 01002KT 17/16 A2998 RMK A01 T01660159  RH  096%=      5-min Rain = 0
KLO1 231044Z 01002KT 17/16 A2998 RMK A01 T01660159  RH  096%=      5-min Rain = 0
KLO1 231045Z 02003KT 17/16 A2998 RMK A01 T01660159  RH  096%=      5-min Rain = 0
KLO1 231046Z 01003KT 17/16 A2998 RMK A01 T01660159  RH  096%=      5-min Rain = 0
KLO1 231047Z 01004KT 17/16 A2998 RMK A01 T01660160  RH  096%=      5-min Rain = 0
KLO1 231048Z 01004KT 17/16 A2998 RMK A01 T01660160  RH  096%=      5-min Rain = 0
KLO1 231049Z 01003KT 17/16 A2998 RMK A01 T01660160  RH  096%=      5-min Rain = 0
KLO1 231050Z 02003KT 17/16 A2998 RMK A01 T01660160  RH  096%=      5-min Rain = 0
KLO1 231051Z 03003KT 17/16 A2998 RMK A01 T01660160  RH  096%=      5-min Rain = 0
KLO1 231052Z 02003KT 17/16 A2998 RMK A01 T01660160  RH  096%=      5-min Rain = 0
KLO1 231053Z 02003KT 17/16 A2998 RMK A01 T01660160  RH  096%=      5-min Rain = 0
KLO1 231054Z 02003KT 17/16 A2998 RMK A01 T01660160  RH  096%=      5-min Rain = 0
KLO1 231055Z 02003KT 17/16 A2998 RMK A01 T01670160  RH  096%=      5-min Rain = 0
KLO1 231056Z 02003KT 17/16 A2998 RMK A01 T01660160  RH  096%=      5-min Rain = 0
KLO1 231057Z 02004KT 17/16 A2998 RMK A01 T01670160  RH  096%=      5-min Rain = 0.01
KLO1 231058Z 02004KT 17/16 A2998 RMK A01 T01670160  RH  096%=      5-min Rain = 0
KLO1 231059Z 03003KT 17/16 A2998 RMK A01 T01670161  RH  096%=      5-min Rain = 0
KLO1 231100Z 03003KT 17/16 A2998 RMK A01 T01670160  RH  096%=      5-min Rain = 0
KLO1 231101Z 04003KT 17/16 A2998 RMK A01 T01670160  RH  096%=      5-min Rain = 0
KLO1 231102Z 04003KT 17/16 A2998 RMK A01 T01670160  RH  096%=      5-min Rain = 0
KLO1 231103Z 04004KT 17/16 A2998 RMK A01 T01670160  RH  096%=      5-min Rain = 0
KLO1 231104Z 04003KT 17/16 A2998 RMK A01 T01670161  RH  096%=      5-min Rain = 0
KLO1 231105Z 04003KT 17/16 A2998 RMK A01 T01670161  RH  096%=      5-min Rain = 0
KLO1 231106Z 05003KT 17/16 A2998 RMK A01 T01670161  RH  096%=      5-min Rain = 0
KLO1 231107Z 05003KT 17/16 A2998 RMK A01 T01670161  RH  096%=      5-min Rain = 0
KLO1 231108Z 05003KT 17/16 A2998 RMK A01 T01670161  RH  096%=      5-min Rain = 0
KLO1 231109Z 05003KT 17/16 A2998 RMK A01 T01670161  RH  096%=      5-min Rain = 0
KLO1 231110Z 05003KT 17/16 A2998 RMK A01 T01670161  RH  096%=      5-min Rain = 0
KLO1 231111Z 05003KT 17/16 A2998 RMK A01 T01670161  RH  096%=      5-min Rain = 0
KLO1 231112Z 05003KT 17/16 A2998 RMK A01 T01670161  RH  096%=      5-min Rain = 0
KLO1 231113Z 05003KT 17/16 A2998 RMK A01 T01670161  RH  096%=      5-min Rain = 0
KLO1 231114Z 05002KT 17/16 A2998 RMK A01 T01670161  RH  096%=      5-min Rain = 0
KLO1 231115Z 05003KT 17/16 A2998 RMK A01 T01670161  RH  096%=      5-min Rain = 0
KLO1 231116Z 05002KT 17/16 A2998 RMK A01 T01680162  RH  096%=      5-min Rain = 0
KLO1 231117Z 05003KT 17/16 A2998 RMK A01 T01680162  RH  096%=      5-min Rain = 0
KLO1 231118Z 06003KT 17/16 A2998 RMK A01 T01680162  RH  096%=      5-min Rain = 0
KLO1 231119Z 06002KT 17/16 A2998 RMK A01 T01680162  RH  096%=      5-min Rain = 0
KLO1 231120Z 06002KT 17/16 A2998 RMK A01 T01680162  RH  096%=      5-min Rain = 0
KLO1 231121Z 06002KT 17/16 A2998 RMK A01 T01680162  RH  096%=      5-min Rain = 0
KLO1 231122Z 08002KT 17/16 A2998 RMK A01 T01680162  RH  096%=      5-min Rain = 0
KLO1 231123Z 08001KT 17/16 A2998 RMK A01 T01680162  RH  096%=      5-min Rain = 0
KLO1 231124Z 07001KT 17/16 A2998 RMK A01 T01680162  RH  096%=      5-min Rain = 0
KLO1 231125Z 09002KT 17/16 A2998 RMK A01 T01680162  RH  096%=      5-min Rain = 0
KLO1 231126Z 08002KT 17/16 A2998 RMK A01 T01680161  RH  096%=      5-min Rain = 0
KLO1 231127Z 08002KT 17/16 A2998 RMK A01 T01680162  RH  096%=      5-min Rain = 0
KLO1 231128Z 08002KT 17/16 A2998 RMK A01 T01680161  RH  096%=      5-min Rain = 0
KLO1 231129Z 08002KT 17/16 A2998 RMK A01 T01680161  RH  096%=      5-min Rain = 0
KLO1 231130Z 07002KT 17/16 A2998 RMK A01 T01680161  RH  096%=      5-min Rain = 0
KLO1 231131Z 06002KT 17/16 A2998 RMK A01 T01680162  RH  096%=      5-min Rain = 0
KLO1 231132Z 06002KT 17/16 A2998 RMK A01 T01680161  RH  096%=      5-min Rain = 0
KLO1 231133Z 07002KT 17/16 A2998 RMK A01 T01680161  RH  096%=      5-min Rain = 0
KLO1 231134Z 08002KT 17/16 A2998 RMK A01 T01680161  RH  096%=      5-min Rain = 0
KLO1 231135Z 06003KT 17/16 A2998 RMK A01 T01680161  RH  096%=      5-min Rain = 0
KLO1 231136Z 07002KT 17/16 A2998 RMK A01 T01680161  RH  096%=      5-min Rain = 0
KLO1 231137Z 07002KT 17/16 A2998 RMK A01 T01680161  RH  096%=      5-min Rain = 0
KLO1 231138Z 07002KT 17/16 A2998 RMK A01 T01680161  RH  096%=      5-min Rain = 0
KLO1 231139Z 07002KT 17/16 A2998 RMK A01 T01670161  RH  096%=      5-min Rain = 0
KLO1 231140Z 07003KT 17/16 A2998 RMK A01 T01680161  RH  096%=      5-min Rain = 0
KLO1 231141Z 07003KT 17/16 A2998 RMK A01 T01680161  RH  096%=      5-min Rain = 0
KLO1 231142Z 07003KT 17/16 A2998 RMK A01 T01680161  RH  096%=      5-min Rain = 0
KLO1 231143Z 07003KT 17/16 A2997 RMK A01 T01680161  RH  096%=      5-min Rain = 0
KLO1 231144Z 06002KT 17/16 A2997 RMK A01 T01680161  RH  096%=      5-min Rain = 0
KLO1 231145Z 06003KT 17/16 A2998 RMK A01 T01680161  RH  096%=      5-min Rain = 0
KLO1 231146Z 06003KT 17/16 A2998 RMK A01 T01680161  RH  096%=      5-min Rain = 0
KLO1 231147Z 06003KT 17/16 A2998 RMK A01 T01690162  RH  096%=      5-min Rain = 0
KLO1 231148Z 06003KT 17/16 A2998 RMK A01 T01690162  RH  096%=      5-min Rain = 0
KLO1 231149Z 06003KT 17/16 A2998 RMK A01 T01690162  RH  096%=      5-min Rain = 0
KLO1 231150Z 05003KT 17/16 A2998 RMK A01 T01680161  RH  096%=      5-min Rain = 0
KLO1 231151Z 05003KT 17/16 A2998 RMK A01 T01690161  RH  096%=      5-min Rain = 0
KLO1 231152Z 06003KT 17/16 A2998 RMK A01 T01680161  RH  096%=      5-min Rain = 0
KLO1 231153Z 06003KT 17/16 A2998 RMK A01 T01690161  RH  096%=      5-min Rain = 0
KLO1 231154Z 06004KT 17/16 A2998 RMK A01 T01680161  RH  096%=      5-min Rain = 0
KLO1 231155Z 06004KT 17/16 A2998 RMK A01 T01680161  RH  096%=      5-min Rain = 0
KLO1 231156Z 06004KT 17/16 A2998 RMK A01 T01690161  RH  096%=      5-min Rain = 0
KLO1 231157Z 07004KT 17/16 A2998 RMK A01 T01690161  RH  096%=      5-min Rain = 0
KLO1 231158Z 07003KT 17/16 A2998 RMK A01 T01690161  RH  095%=      5-min Rain = 0
KLO1 231159Z 06003KT 17/16 A2999 RMK A01 T01680161  RH  095%=      5-min Rain = 0
KLO1 231200Z 06003KT 17/16 A2999 RMK A01 T01680161  RH  095%=      5-min Rain = 0
KLO1 231201Z 06003KT 17/16 A2999 RMK A01 T01690161  RH  095%=      5-min Rain = 0
KLO1 231202Z 06003KT 17/16 A2999 RMK A01 T01690161  RH  095%=      5-min Rain = 0
KLO1 231203Z 05002KT 17/16 A2999 RMK A01 T01690162  RH  095%=      5-min Rain = 0
KLO1 231204Z 05002KT 17/16 A2999 RMK A01 T01690162  RH  096%=      5-min Rain = 0
KLO1 231205Z 05002KT 17/16 A2999 RMK A01 T01690162  RH  096%=      5-min Rain = 0
KLO1 231206Z 06003KT 17/16 A2999 RMK A01 T01690162  RH  095%=      5-min Rain = 0
KLO1 231207Z 06004KT 17/16 A2999 RMK A01 T01690162  RH  095%=      5-min Rain = 0
KLO1 231208Z 06003KT 17/16 A2999 RMK A01 T01690162  RH  095%=      5-min Rain = 0
KLO1 231209Z 06003KT 17/16 A2999 RMK A01 T01690161  RH  095%=      5-min Rain = 0
KLO1 231210Z 07003KT 17/16 A2999 RMK A01 T01680161  RH  095%=      5-min Rain = 0
KLO1 231211Z 07004KT 17/16 A2999 RMK A01 T01690161  RH  095%=      5-min Rain = 0
KLO1 231212Z 06003KT 17/16 A2999 RMK A01 T01690161  RH  095%=      5-min Rain = 0
KLO1 231213Z 07003KT 17/16 A2999 RMK A01 T01680161  RH  095%=      5-min Rain = 0
KLO1 231214Z 07003KT 17/16 A2999 RMK A01 T01680161  RH  095%=      5-min Rain = 0
KLO1 231215Z 07004KT 17/16 A2999 RMK A01 T01680161  RH  095%=      5-min Rain = 0
KLO1 231216Z 07003KT 17/16 A2999 RMK A01 T01690161  RH  095%=      5-min Rain = 0
KLO1 231217Z 07003KT 17/16 A2999 RMK A01 T01690161  RH  095%=      5-min Rain = 0
KLO1 231218Z 07004KT 17/16 A2999 RMK A01 T01690161  RH  095%=      5-min Rain = 0
KLO1 231219Z 07003KT 17/16 A2999 RMK A01 T01690161  RH  095%=      5-min Rain = 0
KLO1 231220Z 07003KT 17/16 A2999 RMK A01 T01690160  RH  095%=      5-min Rain = 0
KLO1 231221Z 07003KT 17/16 A2999 RMK A01 T01690160  RH  095%=      5-min Rain = 0
KLO1 231222Z 06003KT 17/16 A2999 RMK A01 T01690161  RH  095%=      5-min Rain = 0
KLO1 231223Z 06004KT 17/16 A2999 RMK A01 T01690161  RH  095%=      5-min Rain = 0
KLO1 231224Z 06004KT 17/16 A2999 RMK A01 T01690161  RH  095%=      5-min Rain = 0
KLO1 231225Z 06004KT 17/16 A2999 RMK A01 T01690161  RH  095%=      5-min Rain = 0
KLO1 231226Z 06004KT 17/16 A2999 RMK A01 T01690161  RH  095%=      5-min Rain = 0
KLO1 231227Z 06004KT 17/16 A2999 RMK A01 T01680161  RH  095%=      5-min Rain = 0
KLO1 231228Z 06004KT 17/16 A2999 RMK A01 T01690161  RH  095%=      5-min Rain = 0
KLO1 231229Z 06004KT 17/16 A2999 RMK A01 T01690161  RH  095%=      5-min Rain = 0
KLO1 231230Z 06005KT 17/16 A2999 RMK A01 T01680161  RH  095%=      5-min Rain = 0
KLO1 231231Z 06005KT 17/16 A2999 RMK A01 T01680161  RH  095%=      5-min Rain = 0
KLO1 231232Z 06004KT 17/16 A2999 RMK A01 T01680161  RH  095%=      5-min Rain = 0
KLO1 231233Z 06004KT 17/16 A2999 RMK A01 T01680161  RH  095%=      5-min Rain = 0
KLO1 231234Z 06003KT 17/16 A2999 RMK A01 T01680161  RH  095%=      5-min Rain = 0
KLO1 231235Z 05004KT 17/16 A2999 RMK A01 T01680161  RH  095%=      5-min Rain = 0
KLO1 231236Z 05004KT 17/16 A2999 RMK A01 T01680161  RH  095%=      5-min Rain = 0
KLO1 231237Z 05003KT 17/16 A2999 RMK A01 T01690161  RH  095%=      5-min Rain = 0
KLO1 231238Z 04003KT 17/16 A2999 RMK A01 T01690161  RH  095%=      5-min Rain = 0
KLO1 231239Z 05004KT 17/16 A2999 RMK A01 T01690162  RH  095%=      5-min Rain = 0
KLO1 231240Z 04004KT 17/16 A2999 RMK A01 T01690161  RH  095%=      5-min Rain = 0
KLO1 231241Z 04004KT 17/16 A2999 RMK A01 T01690162  RH  095%=      5-min Rain = 0
KLO1 231242Z 05004KT 17/16 A2999 RMK A01 T01700162  RH  095%=      5-min Rain = 0
KLO1 231243Z 05004KT 17/16 A2999 RMK A01 T01690162  RH  095%=      5-min Rain = 0
KLO1 231244Z 05004KT 17/16 A2999 RMK A01 T01690162  RH  095%=      5-min Rain = 0
KLO1 231245Z 05004KT 17/16 A2999 RMK A01 T01700162  RH  095%=      5-min Rain = 0
KLO1 231246Z 05005KT 17/16 A2999 RMK A01 T01700162  RH  095%=      5-min Rain = 0
KLO1 231247Z 05004KT 17/16 A30 RMK A01 T01700162  RH  095%=      5-min Rain = 0
KLO1 231248Z 05004KT 17/16 A30 RMK A01 T01700162  RH  095%=      5-min Rain = 0
KLO1 231249Z 06005KT 17/16 A30 RMK A01 T01700162  RH  095%=      5-min Rain = 0
KLO1 231250Z 06005KT 17/16 A30 RMK A01 T01700162  RH  095%=      5-min Rain = 0
KLO1 231251Z 06004KT 17/16 A30 RMK A01 T01700162  RH  095%=      5-min Rain = 0
KLO1 231252Z 07004KT 17/16 A30 RMK A01 T01710162  RH  095%=      5-min Rain = 0
KLO1 231253Z 07004KT 17/16 A30 RMK A01 T01710163  RH  095%=      5-min Rain = 0
KLO1 231254Z 07004KT 17/16 A30 RMK A01 T01710163  RH  095%=      5-min Rain = 0
KLO1 231255Z 07004KT 17/16 A30 RMK A01 T01710163  RH  095%=      5-min Rain = 0
KLO1 231256Z 07005KT 17/16 A30 RMK A01 T01720163  RH  095%=      5-min Rain = 0
KLO1 231257Z 07004KT 17/16 A30 RMK A01 T01710163  RH  094%=      5-min Rain = 0
KLO1 231258Z 07006KT 17/16 A30 RMK A01 T01710162  RH  094%=      5-min Rain = 0
KLO1 231259Z 07006KT 17/16 A30 RMK A01 T01710162  RH  094%=      5-min Rain = 0
KLO1 231300Z 07005KT 17/16 A3001 RMK A01 T01710161  RH  094%=      5-min Rain = 0
KLO1 231301Z 07005KT 17/16 A3001 RMK A01 T01710162  RH  094%=      5-min Rain = 0
KLO1 231302Z 07005KT 17/16 A3001 RMK A01 T01710162  RH  094%=      5-min Rain = 0
KLO1 231303Z 08004KT 17/16 A3001 RMK A01 T01710162  RH  094%=      5-min Rain = 0
KLO1 231304Z 08005KT 17/16 A30 RMK A01 T01720163  RH  094%=      5-min Rain = 0
KLO1 231305Z 08005KT 17/16 A30 RMK A01 T01720163  RH  094%=      5-min Rain = 0
KLO1 231306Z 08005KT 17/16 A3001 RMK A01 T01720163  RH  094%=      5-min Rain = 0
KLO1 231307Z 09005KT 17/16 A3001 RMK A01 T01720163  RH  094%=      5-min Rain = 0
KLO1 231308Z 10005KT 17/16 A3001 RMK A01 T01720163  RH  094%=      5-min Rain = 0
KLO1 231309Z 09006KT 17/16 A3001 RMK A01 T01720163  RH  094%=      5-min Rain = 0
KLO1 231310Z 09005KT 17/16 A3001 RMK A01 T01720163  RH  094%=      5-min Rain = 0
KLO1 231311Z 09004KT 17/16 A3001 RMK A01 T01720162  RH  094%=      5-min Rain = 0
KLO1 231312Z 09005KT 17/16 A3001 RMK A01 T01720163  RH  094%=      5-min Rain = 0
KLO1 231313Z 08006KT 17/16 A3001 RMK A01 T01720162  RH  094%=      5-min Rain = 0
KLO1 231314Z 10005KT 17/16 A3001 RMK A01 T01720162  RH  094%=      5-min Rain = 0
KLO1 231315Z 10005KT 17/16 A3001 RMK A01 T01720162  RH  094%=      5-min Rain = 0
KLO1 231316Z 09005KT 17/16 A3001 RMK A01 T01720163  RH  094%=      5-min Rain = 0
KLO1 231317Z 08005KT 17/16 A3001 RMK A01 T01730164  RH  095%=      5-min Rain = 0
KLO1 231318Z 08006KT 17/16 A3001 RMK A01 T01730164  RH  095%=      5-min Rain = 0
KLO1 231319Z 08006KT 17/16 A3001 RMK A01 T01730164  RH  095%=      5-min Rain = 0
KLO1 231320Z 07006KT 17/16 A3001 RMK A01 T01730164  RH  094%=      5-min Rain = 0
KLO1 231321Z 07005KT 17/16 A3001 RMK A01 T01730163  RH  094%=      5-min Rain = 0
KLO1 231322Z 06005KT 17/16 A3001 RMK A01 T01720163  RH  094%=      5-min Rain = 0
KLO1 231323Z 06005KT 17/16 A3001 RMK A01 T01720162  RH  094%=      5-min Rain = 0
KLO1 231324Z 07004KT 17/16 A3001 RMK A01 T01720162  RH  094%=      5-min Rain = 0
KLO1 231325Z 07006KT 17/16 A3001 RMK A01 T01720162  RH  094%=      5-min Rain = 0
KLO1 231326Z 07007KT 17/16 A3001 RMK A01 T01710161  RH  094%=      5-min Rain = 0
KLO1 231327Z 08007KT 17/16 A3001 RMK A01 T01710161  RH  094%=      5-min Rain = 0
KLO1 231328Z 08007KT 17/16 A3001 RMK A01 T01710162  RH  094%=      5-min Rain = 0
KLO1 231329Z 08008KT 17/16 A3001 RMK A01 T01710162  RH  094%=      5-min Rain = 0
KLO1 231330Z 08009KT 17/16 A3001 RMK A01 T01710161  RH  094%=      5-min Rain = 0
KLO1 231331Z 08008KT 17/16 A3001 RMK A01 T01700160  RH  094%=      5-min Rain = 0
KLO1 231332Z 08008KT 17/16 A3001 RMK A01 T01700160  RH  094%=      5-min Rain = 0
KLO1 231333Z 08008KT 17/16 A3001 RMK A01 T01700160  RH  094%=      5-min Rain = 0
KLO1 231334Z 09008KT 17/16 A3001 RMK A01 T01700160  RH  094%=      5-min Rain = 0
KLO1 231335Z 08009KT 17/16 A3001 RMK A01 T01700160  RH  094%=      5-min Rain = 0
KLO1 231336Z 08008KT 17/16 A3001 RMK A01 T01700160  RH  094%=      5-min Rain = 0
KLO1 231337Z 08008KT 17/16 A3001 RMK A01 T01700160  RH  094%=      5-min Rain = 0
KLO1 231338Z 08007KT 17/16 A3001 RMK A01 T01700160  RH  094%=      5-min Rain = 0
KLO1 231339Z 08007KT 17/16 A3001 RMK A01 T01700160  RH  094%=      5-min Rain = 0
KLO1 231340Z 08008KT 17/16 A3001 RMK A01 T01700160  RH  094%=      5-min Rain = 0
KLO1 231341Z 08007KT 17/16 A3001 RMK A01 T01700160  RH  094%=      5-min Rain = 0
KLO1 231342Z 08009KT 17/16 A30 RMK A01 T01700160  RH  094%=      5-min Rain = 0
KLO1 231343Z 08008KT 17/16 A30 RMK A01 T01700160  RH  094%=      5-min Rain = 0
KLO1 231344Z 08009KT 17/16 A30 RMK A01 T01700160  RH  094%=      5-min Rain = 0
KLO1 231345Z 09010KT 17/16 A30 RMK A01 T01700161  RH  094%=      5-min Rain = 0
KLO1 231346Z 08010KT 17/16 A30 RMK A01 T01700161  RH  094%=      5-min Rain = 0
KLO1 231347Z 08009KT 17/16 A2999 RMK A01 T01690160  RH  094%=      5-min Rain = 0
KLO1 231348Z 08010KT 17/16 A2999 RMK A01 T01690159  RH  094%=      5-min Rain = 0
KLO1 231349Z 08011KT 17/16 A2999 RMK A01 T01680158  RH  094%=      5-min Rain = 0
KLO1 231350Z 07010KT 17/16 A2999 RMK A01 T01670156  RH  094%=      5-min Rain = 0
KLO1 231351Z 08008KT 17/16 A2999 RMK A01 T01670157  RH  094%=      5-min Rain = 0
KLO1 231352Z 08007KT 17/16 A2999 RMK A01 T01670157  RH  094%=      5-min Rain = 0
KLO1 231353Z 10007KT 17/16 A2999 RMK A01 T01670158  RH  094%=      5-min Rain = 0
KLO1 231354Z 09010KT 17/16 A2999 RMK A01 T01680160  RH  095%=      5-min Rain = 0
KLO1 231355Z 09009KT 17/16 A30 RMK A01 T01690160  RH  095%=      5-min Rain = 0
KLO1 231356Z 09011KT 17/16 A30 RMK A01 T01690160  RH  094%=      5-min Rain = 0
KLO1 231357Z 08011KT 17/16 A30 RMK A01 T01680158  RH  094%=      5-min Rain = 0
KLO1 231358Z 09010KT 17/16 A2999 RMK A01 T01670158  RH  094%=      5-min Rain = 0
KLO1 231359Z 09010KT 17/16 A2999 RMK A01 T01680158  RH  094%=      5-min Rain = 0
KLO1 231400Z 09009KT 17/16 A2999 RMK A01 T01670158  RH  094%=      5-min Rain = 0
KLO1 231401Z 08011KT 17/16 A2999 RMK A01 T01670158  RH  094%=      5-min Rain = 0
KLO1 231402Z 08010KT 17/16 A2999 RMK A01 T01670158  RH  094%=      5-min Rain = 0
KLO1 231403Z 08009KT 17/16 A2998 RMK A01 T01680159  RH  095%=      5-min Rain = 0
KLO1 231404Z 09014KT 17/16 A2999 RMK A01 T01680160  RH  095%=      5-min Rain = 0
KLO1 231405Z 09013KT 17/16 A2999 RMK A01 T01670158  RH  094%=      5-min Rain = 0
KLO1 231406Z 09013KT 17/16 A2998 RMK A01 T01670157  RH  094%=      5-min Rain = 0
KLO1 231407Z 09011KT 17/16 A2998 RMK A01 T01660157  RH  094%=      5-min Rain = 0
KLO1 231408Z 09010KT 17/16 A2999 RMK A01 T01660157  RH  094%=      5-min Rain = 0
KLO1 231409Z 09009KT 17/16 A2999 RMK A01 T01660157  RH  094%=      5-min Rain = 0
KLO1 231410Z 08003KT 17/16 A3001 RMK A01 T01660157  RH  094%=      5-min Rain = 0
KLO1 231411Z 31005KT 17/16 A3002 RMK A01 T01660157  RH  094%=      5-min Rain = 0
KLO1 231412Z 30013KT 17/16 A3003 RMK A01 T01660157  RH  094%=      5-min Rain = 0
KLO1 231413Z 30017KT 17/16 A3004 RMK A01 T01660156  RH  094%=      5-min Rain = 0
KLO1 231414Z 30018KT 16/15 A3004 RMK A01 T01620149  RH  092%=      5-min Rain = 0
KLO1 231415Z 30021KT 16/14 A3003 RMK A01 T01570142  RH  091%=      5-min Rain = 0
KLO1 231416Z 30028G37KT 15/14 A3003 RMK A01 T01530137  RH  090%=      5-min Rain = 0.07
KLO1 231417Z 29018KT 15/14 A3003 RMK A01 T01520138  RH  091%=      5-min Rain = 0.12
KLO1 231418Z 30020KT 15/14 A3003 RMK A01 T01510138  RH  092%=      5-min Rain = 0.08
KLO1 231419Z 31019KT 15/14 A3003 RMK A01 T01500138  RH  093%=      5-min Rain = 0.04
KLO1 231420Z 29016KT 15/14 A3003 RMK A01 T01500136  RH  091%=      5-min Rain = 0.01
KLO1 231421Z 27012G21KT 15/13 A3003 RMK A01 T01530134  RH  089%=      5-min Rain = 0
KLO1 231422Z 32007G12KT 16/13 A3003 RMK A01 T01550133  RH  087%=      5-min Rain = 0.01
KLO1 231423Z 31013KT 16/13 A3003 RMK A01 T01550133  RH  086%=      5-min Rain = 0
KLO1 231424Z 34014KT 15/13 A3003 RMK A01 T01530132  RH  087%=      5-min Rain = 0
KLO1 231425Z 34016KT 15/13 A3003 RMK A01 T01510131  RH  088%=      5-min Rain = 0.01
KLO1 231426Z 34012KT 15/13 A3004 RMK A01 T01490130  RH  088%=      5-min Rain = 0
KLO1 231427Z 34010KT 15/13 A3004 RMK A01 T01480130  RH  089%=      5-min Rain = 0
KLO1 231428Z 34011KT 15/13 A3004 RMK A01 T01470129  RH  089%=      5-min Rain = 0
KLO1 231429Z 35010KT 15/13 A3004 RMK A01 T01460130  RH  090%=      5-min Rain = 0
KLO1 231430Z 35009KT 15/13 A3004 RMK A01 T01460129  RH  090%=      5-min Rain = 0
KLO1 231431Z 35007KT 15/13 A3003 RMK A01 T01460130  RH  090%=      5-min Rain = 0
KLO1 231432Z 35007KT 15/13 A3003 RMK A01 T01450130  RH  091%=      5-min Rain = 0
KLO1 231433Z 35008KT 15/13 A3003 RMK A01 T01450131  RH  091%=      5-min Rain = 0
KLO1 231434Z 34008KT 15/13 A3003 RMK A01 T01450132  RH  092%=      5-min Rain = 0
KLO1 231435Z 34009KT 15/13 A3003 RMK A01 T01460134  RH  093%=      5-min Rain = 0
KLO1 231436Z 35010KT 15/14 A3003 RMK A01 T01480136  RH  093%=      5-min Rain = 0
KLO1 231437Z 35010KT 15/14 A3003 RMK A01 T01490137  RH  093%=      5-min Rain = 0
KLO1 231438Z 35009KT 15/14 A3003 RMK A01 T01500138  RH  093%=      5-min Rain = 0
KLO1 231439Z 35008KT 15/14 A3003 RMK A01 T01500138  RH  093%=      5-min Rain = 0
KLO1 231440Z 36006KT 15/14 A3003 RMK A01 T01510140  RH  093%=      5-min Rain = 0
KLO1 231441Z 35008KT 15/14 A3003 RMK A01 T01510140  RH  093%=      5-min Rain = 0
KLO1 231442Z 00007KT 15/14 A3003 RMK A01 T01510140  RH  093%=      5-min Rain = 0
KLO1 231443Z 01007KT 15/14 A3003 RMK A01 T01520141  RH  093%=      5-min Rain = 0
KLO1 231444Z 01005KT 15/14 A3003 RMK A01 T01520141  RH  093%=      5-min Rain = 0
KLO1 231445Z 36004KT 15/14 A3003 RMK A01 T01530141  RH  093%=      5-min Rain = 0
KLO1 231446Z 35004KT 15/14 A3003 RMK A01 T01530141  RH  093%=      5-min Rain = 0
KLO1 231447Z 35005KT 15/14 A3003 RMK A01 T01540143  RH  093%=      5-min Rain = 0
KLO1 231448Z 35007KT 15/14 A3003 RMK A01 T01540143  RH  093%=      5-min Rain = 0
KLO1 231449Z 00006KT 15/14 A3003 RMK A01 T01540144  RH  093%=      5-min Rain = 0
KLO1 231450Z 00008KT 16/14 A3003 RMK A01 T01550143  RH  093%=      5-min Rain = 0
KLO1 231451Z 02008KT 15/14 A3003 RMK A01 T01540141  RH  092%=      5-min Rain = 0
KLO1 231452Z 01008KT 15/14 A3003 RMK A01 T01540142  RH  093%=      5-min Rain = 0
KLO1 231453Z 01008KT 15/14 A3003 RMK A01 T01540142  RH  093%=      5-min Rain = 0
KLO1 231454Z 02009KT 16/14 A3003 RMK A01 T01550143  RH  092%=      5-min Rain = 0
KLO1 231455Z 02009KT 16/14 A3003 RMK A01 T01550143  RH  092%=      5-min Rain = 0
KLO1 231456Z 02008KT 16/14 A3003 RMK A01 T01550144  RH  093%=      5-min Rain = 0
KLO1 231457Z 04009KT 16/14 A3003 RMK A01 T01560144  RH  093%=      5-min Rain = 0
KLO1 231458Z 03011KT 16/15 A3003 RMK A01 T01560145  RH  093%=      5-min Rain = 0
KLO1 231459Z 04011KT 16/15 A3003 RMK A01 T01560145  RH  093%=      5-min Rain = 0
KLO1 231500Z 04013KT 16/15 A3003 RMK A01 T01560145  RH  093%=      5-min Rain = 0.01
KLO1 231501Z 04013KT 16/15 A3003 RMK A01 T01560145  RH  093%=      5-min Rain = 0
KLO1 231502Z 05012KT 16/15 A3003 RMK A01 T01560145  RH  094%=      5-min Rain = 0
KLO1 231503Z 05012KT 16/15 A3003 RMK A01 T01560146  RH  094%=      5-min Rain = 0
KLO1 231504Z 06012KT 16/15 A3003 RMK A01 T01570147  RH  094%=      5-min Rain = 0
KLO1 231505Z 05011KT 16/15 A3003 RMK A01 T01570148  RH  094%=      5-min Rain = 0
KLO1 231506Z 06010KT 16/15 A3003 RMK A01 T01580149  RH  094%=      5-min Rain = 0
KLO1 231507Z 05011KT 16/15 A3003 RMK A01 T01580148  RH  094%=      5-min Rain = 0
KLO1 231508Z 05010KT 16/15 A3003 RMK A01 T01580148  RH  094%=      5-min Rain = 0
KLO1 231509Z 05012KT 16/15 A3003 RMK A01 T01590149  RH  094%=      5-min Rain = 0
KLO1 231510Z 06010KT 16/15 A3003 RMK A01 T01590149  RH  094%=      5-min Rain = 0
KLO1 231511Z 07010KT 16/15 A3003 RMK A01 T01590148  RH  094%=      5-min Rain = 0
KLO1 231512Z 06010KT 16/15 A3003 RMK A01 T01580148  RH  093%=      5-min Rain = 0
KLO1 231513Z 07007KT 16/15 A3003 RMK A01 T01600151  RH  094%=      5-min Rain = 0
KLO1 231514Z 07010KT 16/15 A3003 RMK A01 T01620152  RH  094%=      5-min Rain = 0
KLO1 231515Z 06011KT 16/15 A3003 RMK A01 T01610151  RH  094%=      5-min Rain = 0
KLO1 231516Z 06011KT 16/15 A3003 RMK A01 T01610149  RH  093%=      5-min Rain = 0
KLO1 231517Z 05011KT 16/15 A3003 RMK A01 T01600148  RH  093%=      5-min Rain = 0
KLO1 231518Z 05012KT 16/15 A3003 RMK A01 T01600149  RH  093%=      5-min Rain = 0
KLO1 231519Z 05012KT 16/15 A3003 RMK A01 T01610149  RH  093%=      5-min Rain = 0
KLO1 231520Z 05014KT 16/15 A3003 RMK A01 T01620150  RH  092%=      5-min Rain = 0
KLO1 231521Z 05013KT 16/15 A3003 RMK A01 T01630149  RH  092%=      5-min Rain = 0
KLO1 231522Z 05012G17KT 16/15 A3003 RMK A01 T01630150  RH  092%=      5-min Rain = 0
KLO1 231523Z 05014KT 16/15 A3003 RMK A01 T01640150  RH  092%=      5-min Rain = 0
KLO1 231524Z 05015KT 16/15 A3003 RMK A01 T01640149  RH  091%=      5-min Rain = 0
KLO1 231525Z 05013KT 16/15 A3003 RMK A01 T01630149  RH  091%=      5-min Rain = 0
KLO1 231526Z 05013KT 16/15 A3003 RMK A01 T01640150  RH  092%=      5-min Rain = 0
KLO1 231527Z 06011KT 17/15 A3003 RMK A01 T01650151  RH  091%=      5-min Rain = 0
KLO1 231528Z 06012KT 17/15 A3003 RMK A01 T01670153  RH  092%=      5-min Rain = 0
KLO1 231529Z 06011KT 17/15 A3003 RMK A01 T01680154  RH  092%=      5-min Rain = 0
KLO1 231530Z 06014KT 17/16 A3003 RMK A01 T01700155  RH  091%=      5-min Rain = 0
KLO1 231531Z 06015KT 17/15 A3003 RMK A01 T01690152  RH  090%=      5-min Rain = 0
KLO1 231532Z 06013KT 17/15 A3003 RMK A01 T01690153  RH  091%=      5-min Rain = 0
KLO1 231533Z 07012G17KT 17/15 A3003 RMK A01 T01690153  RH  090%=      5-min Rain = 0
KLO1 231534Z 06012KT 17/16 A3003 RMK A01 T01700155  RH  091%=      5-min Rain = 0
KLO1 231535Z 07011KT 17/16 A3003 RMK A01 T01710157  RH  091%=      5-min Rain = 0
KLO1 231536Z 07012G17KT 17/16 A3003 RMK A01 T01720155  RH  090%=      5-min Rain = 0
KLO1 231537Z 07014KT 17/15 A3004 RMK A01 T01700150  RH  088%=      5-min Rain = 0
KLO1 231538Z 06012KT 17/15 A3004 RMK A01 T01680149  RH  089%=      5-min Rain = 0
KLO1 231539Z 06011KT 17/15 A3004 RMK A01 T01680150  RH  089%=      5-min Rain = 0
KLO1 231540Z 06012KT 17/15 A3004 RMK A01 T01680151  RH  089%=      5-min Rain = 0
KLO1 231541Z 06012KT 17/15 A3004 RMK A01 T01690151  RH  089%=      5-min Rain = 0
KLO1 231542Z 07011KT 17/15 A3004 RMK A01 T01700152  RH  089%=      5-min Rain = 0
KLO1 231543Z 07011KT 17/15 A3004 RMK A01 T01700151  RH  088%=      5-min Rain = 0
KLO1 231544Z 07010KT 17/15 A3004 RMK A01 T01680148  RH  088%=      5-min Rain = 0
KLO1 231545Z 08011KT 17/15 A3004 RMK A01 T01690151  RH  089%=      5-min Rain = 0
KLO1 231546Z 08012KT 17/15 A3004 RMK A01 T01690151  RH  089%=      5-min Rain = 0
KLO1 231547Z 07011KT 17/15 A3004 RMK A01 T01690151  RH  089%=      5-min Rain = 0
KLO1 231548Z 07010KT 17/15 A3004 RMK A01 T01700152  RH  090%=      5-min Rain = 0
KLO1 231549Z 07009KT 17/15 A3004 RMK A01 T01700152  RH  089%=      5-min Rain = 0
KLO1 231550Z 06009KT 17/15 A3004 RMK A01 T01700153  RH  090%=      5-min Rain = 0
KLO1 231551Z 07009KT 17/15 A3004 RMK A01 T01700153  RH  090%=      5-min Rain = 0
KLO1 231552Z 07011KT 17/15 A3004 RMK A01 T01700153  RH  090%=      5-min Rain = 0
KLO1 231553Z 06012KT 17/15 A3004 RMK A01 T01700151  RH  088%=      5-min Rain = 0
KLO1 231554Z 06013KT 17/15 A3004 RMK A01 T01690150  RH  089%=      5-min Rain = 0
KLO1 231555Z 07010KT 17/15 A3004 RMK A01 T01690150  RH  089%=      5-min Rain = 0
KLO1 231556Z 06010KT 17/15 A3004 RMK A01 T01690151  RH  089%=      5-min Rain = 0
KLO1 231557Z 07010KT 17/15 A3004 RMK A01 T01690151  RH  089%=      5-min Rain = 0
KLO1 231558Z 07010KT 17/15 A3004 RMK A01 T01690150  RH  089%=      5-min Rain = 0
KLO1 231559Z 06010KT 17/15 A3004 RMK A01 T01690150  RH  089%=      5-min Rain = 0
KLO1 231600Z 06010KT 17/15 A3004 RMK A01 T01690149  RH  088%=      5-min Rain = 0
KLO1 231601Z 06009KT 17/15 A3004 RMK A01 T01690149  RH  088%=      5-min Rain = 0
KLO1 231602Z 06010KT 17/15 A3004 RMK A01 T01690152  RH  090%=      5-min Rain = 0
KLO1 231603Z 06011KT 17/15 A3004 RMK A01 T01700151  RH  088%=      5-min Rain = 0
KLO1 231604Z 06010KT 17/15 A3004 RMK A01 T01700151  RH  088%=      5-min Rain = 0
KLO1 231605Z 06009KT 17/15 A3005 RMK A01 T01700150  RH  088%=      5-min Rain = 0
KLO1 231606Z 06009KT 17/15 A3005 RMK A01 T01690149  RH  088%=      5-min Rain = 0
KLO1 231607Z 05008KT 17/15 A3005 RMK A01 T01690149  RH  088%=      5-min Rain = 0
KLO1 231608Z 05010KT 17/15 A3005 RMK A01 T01680149  RH  088%=      5-min Rain = 0
KLO1 231609Z 05008KT 17/15 A3005 RMK A01 T01680150  RH  089%=      5-min Rain = 0
KLO1 231610Z 05009KT 17/15 A3005 RMK A01 T01690150  RH  088%=      5-min Rain = 0
KLO1 231611Z 05007KT 17/15 A3005 RMK A01 T01690150  RH  088%=      5-min Rain = 0
KLO1 231612Z 05007KT 17/15 A3005 RMK A01 T01690151  RH  089%=      5-min Rain = 0
KLO1 231613Z 04010KT 17/15 A3005 RMK A01 T01700153  RH  090%=      5-min Rain = 0
KLO1 231614Z 04011KT 17/15 A3005 RMK A01 T01720154  RH  089%=      5-min Rain = 0
KLO1 231615Z 04010KT 17/15 A3005 RMK A01 T01720153  RH  089%=      5-min Rain = 0
KLO1 231616Z 03009KT 17/15 A3005 RMK A01 T01710152  RH  088%=      5-min Rain = 0
KLO1 231617Z 04009KT 17/15 A3005 RMK A01 T01720154  RH  089%=      5-min Rain = 0
KLO1 231618Z 04010KT 17/15 A3005 RMK A01 T01720154  RH  089%=      5-min Rain = 0
KLO1 231619Z 04008KT 17/15 A3005 RMK A01 T01720152  RH  088%=      5-min Rain = 0
KLO1 231620Z 04008KT 17/15 A3005 RMK A01 T01720153  RH  088%=      5-min Rain = 0
KLO1 231621Z 04009KT 17/15 A3005 RMK A01 T01720154  RH  089%=      5-min Rain = 0
KLO1 231622Z 04010KT 17/16 A3005 RMK A01 T01740155  RH  089%=      5-min Rain = 0
KLO1 231623Z 04011KT 18/16 A3005 RMK A01 T01750156  RH  088%=      5-min Rain = 0
KLO1 231624Z 05010KT 18/15 A3005 RMK A01 T01750154  RH  088%=      5-min Rain = 0
KLO1 231625Z 04009KT 18/16 A3005 RMK A01 T01750156  RH  089%=      5-min Rain = 0
KLO1 231626Z 05010KT 18/16 A3005 RMK A01 T01760157  RH  089%=      5-min Rain = 0
KLO1 231627Z 04009KT 18/16 A3005 RMK A01 T01760157  RH  088%=      5-min Rain = 0
KLO1 231628Z 04011KT 18/16 A3005 RMK A01 T01770157  RH  088%=      5-min Rain = 0
KLO1 231629Z 04010KT 18/16 A3005 RMK A01 T01770156  RH  088%=      5-min Rain = 0
KLO1 231630Z 04010KT 18/16 A3004 RMK A01 T01770158  RH  088%=      5-min Rain = 0
KLO1 231631Z 04009KT 18/16 A3004 RMK A01 T01790160  RH  089%=      5-min Rain = 0
KLO1 231632Z 05010KT 18/16 A3005 RMK A01 T01820164  RH  089%=      5-min Rain = 0
KLO1 231633Z 05010KT 18/16 A3005 RMK A01 T01840161  RH  086%=      5-min Rain = 0
KLO1 231634Z 05011KT 18/16 A3005 RMK A01 T01830159  RH  086%=      5-min Rain = 0
KLO1 231635Z 06009KT 18/16 A3005 RMK A01 T01820158  RH  086%=      5-min Rain = 0
KLO1 231636Z 06009KT 18/16 A3005 RMK A01 T01820157  RH  085%=      5-min Rain = 0
KLO1 231637Z 06010KT 18/16 A3005 RMK A01 T01820157  RH  086%=      5-min Rain = 0
KLO1 231638Z 06009KT 18/16 A3005 RMK A01 T01820159  RH  086%=      5-min Rain = 0
KLO1 231639Z 06009KT 18/16 A3004 RMK A01 T01820158  RH  086%=      5-min Rain = 0
KLO1 231640Z 06012KT 18/16 A3004 RMK A01 T01810156  RH  085%=      5-min Rain = 0
KLO1 231641Z 06010KT 18/16 A3004 RMK A01 T01800156  RH  086%=      5-min Rain = 0
KLO1 231642Z 05011KT 18/16 A3004 RMK A01 T01810157  RH  086%=      5-min Rain = 0
KLO1 231643Z 05012KT 18/16 A3004 RMK A01 T01810156  RH  085%=      5-min Rain = 0
KLO1 231644Z 05009KT 18/16 A3004 RMK A01 T01820156  RH  084%=      5-min Rain = 0
KLO1 231645Z 05011KT 18/16 A3004 RMK A01 T01820156  RH  085%=      5-min Rain = 0
KLO1 231646Z 06010KT 18/16 A3004 RMK A01 T01820156  RH  085%=      5-min Rain = 0
KLO1 231647Z 06009KT 18/16 A3004 RMK A01 T01820156  RH  085%=      5-min Rain = 0
KLO1 231648Z 05008KT 18/16 A3004 RMK A01 T01820157  RH  085%=      5-min Rain = 0
KLO1 231649Z 05010KT 18/16 A3004 RMK A01 T01820157  RH  085%=      5-min Rain = 0
KLO1 231650Z 05009KT 18/16 A3004 RMK A01 T01820158  RH  086%=      5-min Rain = 0
KLO1 231651Z 06010KT 18/16 A3004 RMK A01 T01830159  RH  086%=      5-min Rain = 0
KLO1 231652Z 07009KT 18/15 A3004 RMK A01 T01820154  RH  083%=      5-min Rain = 0
KLO1 231653Z 06009KT 18/15 A3004 RMK A01 T01810154  RH  085%=      5-min Rain = 0
KLO1 231654Z 06009KT 18/16 A3004 RMK A01 T01810156  RH  085%=      5-min Rain = 0
KLO1 231655Z 07010KT 18/16 A3004 RMK A01 T01820158  RH  086%=      5-min Rain = 0
KLO1 231656Z 07010KT 18/15 A3004 RMK A01 T01820154  RH  084%=      5-min Rain = 0
KLO1 231657Z 07009KT 18/15 A3004 RMK A01 T01810151  RH  083%=      5-min Rain = 0
KLO1 231658Z 06009KT 18/15 A3004 RMK A01 T01810153  RH  084%=      5-min Rain = 0
KLO1 231659Z 06010KT 18/15 A3004 RMK A01 T01810154  RH  084%=      5-min Rain = 0
KLO1 231700Z 05011KT 18/16 A3003 RMK A01 T01830155  RH  084%=      5-min Rain = 0
KLO1 231701Z 06012KT 19/16 A3003 RMK A01 T01860157  RH  083%=      5-min Rain = 0
KLO1 231702Z 05012KT 19/16 A3003 RMK A01 T01880156  RH  082%=      5-min Rain = 0
KLO1 231703Z 05011KT 19/16 A3003 RMK A01 T01890156  RH  081%=      5-min Rain = 0
KLO1 231704Z 06009KT 19/16 A3003 RMK A01 T01910161  RH  083%=      5-min Rain = 0
KLO1 231705Z 05010KT 19/16 A3003 RMK A01 T01940162  RH  082%=      5-min Rain = 0
KLO1 231706Z 04010KT 20/16 A3003 RMK A01 T01950161  RH  081%=      5-min Rain = 0
KLO1 231707Z 05012KT 20/16 A3003 RMK A01 T01960160  RH  080%=      5-min Rain = 0
KLO1 231708Z 07011KT 20/16 A3003 RMK A01 T01950156  RH  078%=      5-min Rain = 0
KLO1 231709Z 06011KT 19/16 A3003 RMK A01 T01930156  RH  079%=      5-min Rain = 0
KLO1 231710Z 07010KT 19/16 A3003 RMK A01 T01930155  RH  079%=      5-min Rain = 0
KLO1 231711Z 06010KT 19/16 A3003 RMK A01 T01930158  RH  080%=      5-min Rain = 0
KLO1 231712Z 05011KT 19/16 A3003 RMK A01 T01940160  RH  081%=      5-min Rain = 0
KLO1 231713Z 04012KT 20/16 A3003 RMK A01 T01950159  RH  080%=      5-min Rain = 0
KLO1 231714Z 05009KT 20/16 A3003 RMK A01 T01950160  RH  080%=      5-min Rain = 0
KLO1 231715Z 07009KT 19/16 A3003 RMK A01 T01940159  RH  080%=      5-min Rain = 0
KLO1 231716Z 08010KT 19/16 A3003 RMK A01 T01940156  RH  079%=      5-min Rain = 0
KLO1 231717Z 08008KT 20/16 A3003 RMK A01 T01950159  RH  080%=      5-min Rain = 0
KLO1 231718Z 07009KT 20/16 A3003 RMK A01 T01980158  RH  078%=      5-min Rain = 0
KLO1 231719Z 07011KT 20/16 A3003 RMK A01 T01970156  RH  077%=      5-min Rain = 0
KLO1 231720Z 07008KT 20/16 A3003 RMK A01 T01950155  RH  078%=      5-min Rain = 0
KLO1 231721Z 07008KT 19/15 A3003 RMK A01 T01930154  RH  078%=      5-min Rain = 0
KLO1 231722Z 05009KT 19/16 A3003 RMK A01 T01920156  RH  079%=      5-min Rain = 0
KLO1 231723Z 05010KT 19/16 A3003 RMK A01 T01920155  RH  079%=      5-min Rain = 0
KLO1 231724Z 06010KT 19/15 A3003 RMK A01 T01910154  RH  079%=      5-min Rain = 0
KLO1 231725Z 06009KT 19/16 A3003 RMK A01 T01900156  RH  080%=      5-min Rain = 0
KLO1 231726Z 06007KT 19/15 A3003 RMK A01 T01910154  RH  079%=      5-min Rain = 0
KLO1 231727Z 07007KT 19/16 A3003 RMK A01 T01910156  RH  080%=      5-min Rain = 0
KLO1 231728Z 06006KT 19/15 A3003 RMK A01 T01920154  RH  078%=      5-min Rain = 0
KLO1 231729Z 05007KT 19/15 A3003 RMK A01 T01920154  RH  079%=      5-min Rain = 0
KLO1 231730Z 05009KT 19/16 A3003 RMK A01 T01930157  RH  080%=      5-min Rain = 0
KLO1 231731Z 04010KT 19/16 A3002 RMK A01 T01940157  RH  079%=      5-min Rain = 0
KLO1 231732Z 05009KT 20/16 A3003 RMK A01 T01950157  RH  079%=      5-min Rain = 0
KLO1 231733Z 03010KT 20/16 A3002 RMK A01 T01960156  RH  078%=      5-min Rain = 0
KLO1 231734Z 04009KT 20/16 A3002 RMK A01 T01960156  RH  078%=      5-min Rain = 0
KLO1 231735Z 04009KT 20/16 A3002 RMK A01 T01960157  RH  078%=      5-min Rain = 0
KLO1 231736Z 04010KT 20/16 A3002 RMK A01 T01970159  RH  079%=      5-min Rain = 0
KLO1 231737Z 07007KT 20/16 A3002 RMK A01 T01990161  RH  079%=      5-min Rain = 0
KLO1 231738Z 07007KT 20/16 A3002 RMK A01 T01990156  RH  076%=      5-min Rain = 0
KLO1 231739Z 06009KT 20/15 A3002 RMK A01 T01970153  RH  076%=      5-min Rain = 0
KLO1 231740Z 05008KT 20/16 A3002 RMK A01 T01950156  RH  078%=      5-min Rain = 0
KLO1 231741Z 04011KT 20/16 A3002 RMK A01 T01950157  RH  078%=      5-min Rain = 0
KLO1 231742Z 05011KT 20/16 A3002 RMK A01 T01960156  RH  078%=      5-min Rain = 0
KLO1 231743Z 05010KT 20/16 A3002 RMK A01 T01950156  RH  078%=      5-min Rain = 0
KLO1 231744Z 06010KT 20/16 A3002 RMK A01 T01950157  RH  079%=      5-min Rain = 0
KLO1 231745Z 05008KT 20/16 A3002 RMK A01 T01960160  RH  080%=      5-min Rain = 0
KLO1 231746Z 07008KT 20/16 A3002 RMK A01 T01980158  RH  078%=      5-min Rain = 0
KLO1 231747Z 07007KT 20/16 A3002 RMK A01 T01980157  RH  077%=      5-min Rain = 0
KLO1 231748Z 05009KT 20/16 A3002 RMK A01 T01990159  RH  078%=      5-min Rain = 0
KLO1 231749Z 06008KT 20/16 A3002 RMK A01 T01990159  RH  077%=      5-min Rain = 0
KLO1 231750Z 06007KT 20/16 A3002 RMK A01 T02000160  RH  078%=      5-min Rain = 0
KLO1 231751Z 06007KT 20/16 A3002 RMK A01 T02030163  RH  078%=      5-min Rain = 0
KLO1 231752Z 05009KT 20/16 A3002 RMK A01 T02040160  RH  076%=      5-min Rain = 0
KLO1 231753Z 05008KT 20/16 A3002 RMK A01 T02040158  RH  075%=      5-min Rain = 0
KLO1 231754Z 05007KT 20/16 A3002 RMK A01 T02020158  RH  076%=      5-min Rain = 0
KLO1 231755Z 04008KT 20/16 A3002 RMK A01 T02020158  RH  076%=      5-min Rain = 0
KLO1 231756Z 07007KT 20/16 A3002 RMK A01 T02010160  RH  077%=      5-min Rain = 0
KLO1 231757Z 07007KT 20/16 A3002 RMK A01 T02020157  RH  075%=      5-min Rain = 0
KLO1 231758Z 06006KT 20/16 A3002 RMK A01 T02020155  RH  075%=      5-min Rain = 0
KLO1 231759Z 06006KT 20/16 A3002 RMK A01 T02010155  RH  075%=      5-min Rain = 0
KLO1 231800Z 05007KT 20/15 A3002 RMK A01 T02010154  RH  075%=      5-min Rain = 0
KLO1 231801Z 06005KT 20/16 A3002 RMK A01 T02010157  RH  076%=      5-min Rain = 0
KLO1 231802Z 05006KT 20/16 A3002 RMK A01 T02020159  RH  077%=      5-min Rain = 0
KLO1 231803Z 05006KT 20/16 A3002 RMK A01 T02030158  RH  075%=      5-min Rain = 0
KLO1 231804Z 06006KT 20/16 A3002 RMK A01 T02040156  RH  074%=      5-min Rain = 0
KLO1 231805Z 06006KT 20/16 A3002 RMK A01 T02030155  RH  074%=      5-min Rain = 0
KLO1 231806Z 05010KT 20/16 A3002 RMK A01 T02030159  RH  076%=      5-min Rain = 0
KLO1 231807Z 04008KT 20/16 A3002 RMK A01 T02020157  RH  075%=      5-min Rain = 0
KLO1 231808Z 07009KT 20/16 A3002 RMK A01 T02020161  RH  077%=      5-min Rain = 0
KLO1 231809Z 07006KT 20/16 A3002 RMK A01 T02020157  RH  075%=      5-min Rain = 0
KLO1 231810Z 07007KT 20/16 A3002 RMK A01 T02020160  RH  076%=      5-min Rain = 0
KLO1 231811Z 08005KT 20/16 A3002 RMK A01 T02030158  RH  076%=      5-min Rain = 0
KLO1 231812Z 08008KT 20/16 A3001 RMK A01 T02020157  RH  075%=      5-min Rain = 0
KLO1 231813Z 07006KT 20/15 A3001 RMK A01 T02010154  RH  074%=      5-min Rain = 0
KLO1 231814Z 05007KT 20/16 A3001 RMK A01 T02000155  RH  075%=      5-min Rain = 0
KLO1 231815Z 06009KT 20/16 A3001 RMK A01 T02000156  RH  076%=      5-min Rain = 0
KLO1 231816Z 06006KT 20/16 A3001 RMK A01 T01990155  RH  075%=      5-min Rain = 0
KLO1 231817Z 06006KT 20/16 A3001 RMK A01 T01990157  RH  077%=      5-min Rain = 0
KLO1 231818Z 06009KT 20/16 A3001 RMK A01 T01990157  RH  077%=      5-min Rain = 0
KLO1 231819Z 05008KT 20/16 A3001 RMK A01 T01990156  RH  076%=      5-min Rain = 0
KLO1 231820Z 06008KT 20/16 A3001 RMK A01 T01990157  RH  076%=      5-min Rain = 0
KLO1 231821Z 06006KT 20/16 A3001 RMK A01 T01990156  RH  076%=      5-min Rain = 0
KLO1 231822Z 07005KT 20/16 A3001 RMK A01 T02000158  RH  077%=      5-min Rain = 0
KLO1 231823Z 06007KT 20/16 A3001 RMK A01 T02010159  RH  076%=      5-min Rain = 0
KLO1 231824Z 06008KT 20/16 A3001 RMK A01 T02030161  RH  076%=      5-min Rain = 0
KLO1 231825Z 07007KT 21/16 A3001 RMK A01 T02050161  RH  076%=      5-min Rain = 0
KLO1 231826Z 06008KT 21/16 A3001 RMK A01 T02070160  RH  075%=      5-min Rain = 0
KLO1 231827Z 06008KT 21/16 A3001 RMK A01 T02070160  RH  074%=      5-min Rain = 0
KLO1 231828Z 07007KT 21/16 A3001 RMK A01 T02070160  RH  074%=      5-min Rain = 0
KLO1 231829Z 05008KT 21/16 A3001 RMK A01 T02070160  RH  074%=      5-min Rain = 0
KLO1 231830Z 06007KT 21/16 A3001 RMK A01 T02070160  RH  074%=      5-min Rain = 0
KLO1 231831Z 05009KT 21/16 A3001 RMK A01 T02070161  RH  075%=      5-min Rain = 0
KLO1 231832Z 06010KT 21/16 A3001 RMK A01 T02070159  RH  074%=      5-min Rain = 0
KLO1 231833Z 05008KT 21/16 A3001 RMK A01 T02050156  RH  073%=      5-min Rain = 0
KLO1 231834Z 04008KT 20/16 A3001 RMK A01 T02040159  RH  075%=      5-min Rain = 0
KLO1 231835Z 06008KT 20/16 A3001 RMK A01 T02040157  RH  074%=      5-min Rain = 0
KLO1 231836Z 09007KT 21/16 A3001 RMK A01 T02050163  RH  077%=      5-min Rain = 0
KLO1 231837Z 09007KT 21/16 A3001 RMK A01 T02080160  RH  074%=      5-min Rain = 0
KLO1 231838Z 08008KT 21/16 A3001 RMK A01 T02080159  RH  074%=      5-min Rain = 0
KLO1 231839Z 08007G12KT 21/16 A3001 RMK A01 T02080162  RH  075%=      5-min Rain = 0
KLO1 231840Z 09009KT 21/16 A3001 RMK A01 T02090162  RH  074%=      5-min Rain = 0
KLO1 231841Z 08008KT 21/16 A3001 RMK A01 T02090162  RH  074%=      5-min Rain = 0
KLO1 231842Z 08008KT 21/16 A3001 RMK A01 T02090160  RH  074%=      5-min Rain = 0
KLO1 231843Z 07007KT 21/16 A30 RMK A01 T02080160  RH  074%=      5-min Rain = 0
KLO1 231844Z 07008KT 21/16 A30 RMK A01 T02080161  RH  074%=      5-min Rain = 0
KLO1 231845Z 06007KT 21/16 A30 RMK A01 T02100163  RH  075%=      5-min Rain = 0
KLO1 231846Z 05008KT 21/17 A30 RMK A01 T02120171  RH  077%=      5-min Rain = 0
KLO1 231847Z 07010KT 22/17 A30 RMK A01 T02160170  RH  075%=      5-min Rain = 0
KLO1 231848Z 06009KT 22/17 A30 RMK A01 T02170165  RH  073%=      5-min Rain = 0
KLO1 231849Z 06009KT 21/16 A30 RMK A01 T02140162  RH  072%=      5-min Rain = 0
KLO1 231850Z 06009KT 21/16 A30 RMK A01 T02120162  RH  073%=      5-min Rain = 0
KLO1 231851Z 07008KT 21/16 A30 RMK A01 T02110164  RH  075%=      5-min Rain = 0
KLO1 231852Z 07010KT 21/16 A30 RMK A01 T02120164  RH  074%=      5-min Rain = 0
KLO1 231853Z 07009KT 21/16 A30 RMK A01 T02120163  RH  074%=      5-min Rain = 0
KLO1 231854Z 07010KT 21/16 A30 RMK A01 T02120164  RH  074%=      5-min Rain = 0
KLO1 231855Z 07009KT 21/16 A30 RMK A01 T02120163  RH  073%=      5-min Rain = 0
KLO1 231856Z 08009KT 21/16 A30 RMK A01 T02120161  RH  073%=      5-min Rain = 0
KLO1 231857Z 07007KT 21/16 A30 RMK A01 T02110161  RH  073%=      5-min Rain = 0
KLO1 231858Z 09007KT 21/17 A30 RMK A01 T02130168  RH  075%=      5-min Rain = 0
KLO1 231859Z 08005KT 22/17 A30 RMK A01 T02170168  RH  074%=      5-min Rain = 0
KLO1 231900Z 06006KT 22/17 A30 RMK A01 T02190167  RH  072%=      5-min Rain = 0
KLO1 231901Z 08007KT 22/16 A30 RMK A01 T02190164  RH  071%=      5-min Rain = 0
KLO1 231902Z 06007KT 22/17 A30 RMK A01 T02180165  RH  072%=      5-min Rain = 0
KLO1 231903Z 08008KT 22/17 A30 RMK A01 T02180168  RH  073%=      5-min Rain = 0
KLO1 231904Z 07009KT 22/17 A2999 RMK A01 T02190165  RH  071%=      5-min Rain = 0
KLO1 231905Z 06007KT 22/16 A2999 RMK A01 T02190163  RH  070%=      5-min Rain = 0
KLO1 231906Z 05008KT 22/17 A2999 RMK A01 T02180166  RH  072%=      5-min Rain = 0
KLO1 231907Z 06008KT 22/16 A2999 RMK A01 T02170162  RH  071%=      5-min Rain = 0
KLO1 231908Z 06006KT 21/16 A2999 RMK A01 T02140159  RH  071%=      5-min Rain = 0
KLO1 231909Z 06007KT 21/16 A2999 RMK A01 T02130164  RH  074%=      5-min Rain = 0
KLO1 231910Z 05008KT 21/16 A2999 RMK A01 T02130164  RH  074%=      5-min Rain = 0
KLO1 231911Z 07007KT 21/16 A2999 RMK A01 T02120161  RH  072%=      5-min Rain = 0
KLO1 231912Z 08006KT 21/16 A2999 RMK A01 T02110163  RH  074%=      5-min Rain = 0
KLO1 231913Z 08007KT 21/16 A2999 RMK A01 T02130164  RH  073%=      5-min Rain = 0
KLO1 231914Z 07007KT 22/17 A2999 RMK A01 T02150165  RH  073%=      5-min Rain = 0
KLO1 231915Z 10007KT 22/16 A2999 RMK A01 T02170163  RH  071%=      5-min Rain = 0
KLO1 231916Z 10007KT 22/16 A2999 RMK A01 T02170162  RH  071%=      5-min Rain = 0
KLO1 231917Z 10006KT 22/16 A2999 RMK A01 T02160159  RH  070%=      5-min Rain = 0
KLO1 231918Z 09006KT 22/16 A2999 RMK A01 T02160163  RH  072%=      5-min Rain = 0
KLO1 231919Z 08005KT 22/16 A2999 RMK A01 T02160160  RH  070%=      5-min Rain = 0
KLO1 231920Z 10004KT 22/16 A2999 RMK A01 T02160158  RH  070%=      5-min Rain = 0
KLO1 231921Z 08004KT 22/16 A2999 RMK A01 T02160158  RH  069%=      5-min Rain = 0
KLO1 231922Z 08004KT 22/16 A2999 RMK A01 T02170158  RH  069%=      5-min Rain = 0
KLO1 231923Z 08006KT 22/16 A2999 RMK A01 T02170161  RH  070%=      5-min Rain = 0
KLO1 231924Z 06008KT 22/16 A2999 RMK A01 T02170164  RH  072%=      5-min Rain = 0
KLO1 231925Z 06008KT 22/16 A2999 RMK A01 T02170160  RH  070%=      5-min Rain = 0
KLO1 231926Z 05006KT 22/16 A2999 RMK A01 T02150160  RH  071%=      5-min Rain = 0
KLO1 231927Z 06006KT 21/16 A2999 RMK A01 T02140157  RH  070%=      5-min Rain = 0
KLO1 231928Z 06006KT 21/16 A2999 RMK A01 T02130157  RH  071%=      5-min Rain = 0
KLO1 231929Z 07006KT 21/16 A2999 RMK A01 T02120159  RH  071%=      5-min Rain = 0
KLO1 231930Z 07006KT 21/16 A2999 RMK A01 T02120158  RH  071%=      5-min Rain = 0
KLO1 231931Z 07004KT 21/16 A2999 RMK A01 T02120157  RH  071%=      5-min Rain = 0
KLO1 231932Z 06004KT 21/16 A2999 RMK A01 T02120158  RH  071%=      5-min Rain = 0
KLO1 231933Z 05006KT 21/16 A2999 RMK A01 T02120157  RH  071%=      5-min Rain = 0
KLO1 231934Z 05007KT 21/16 A2999 RMK A01 T02120157  RH  071%=      5-min Rain = 0
KLO1 231935Z 09008KT 21/16 A2999 RMK A01 T02130161  RH  072%=      5-min Rain = 0
KLO1 231936Z 08008KT 21/16 A2999 RMK A01 T02140159  RH  071%=      5-min Rain = 0
KLO1 231937Z 08007KT 21/16 A2999 RMK A01 T02140159  RH  071%=      5-min Rain = 0
KLO1 231938Z 07008KT 22/16 A2999 RMK A01 T02150158  RH  070%=      5-min Rain = 0
KLO1 231939Z 06007KT 22/16 A2999 RMK A01 T02150159  RH  070%=      5-min Rain = 0
KLO1 231940Z 06006KT 22/16 A2999 RMK A01 T02150159  RH  070%=      5-min Rain = 0
KLO1 231941Z 06006KT 22/16 A2999 RMK A01 T02150160  RH  071%=      5-min Rain = 0
KLO1 231942Z 06009KT 22/16 A2998 RMK A01 T02170162  RH  071%=      5-min Rain = 0
KLO1 231943Z 07007KT 22/16 A2998 RMK A01 T02190163  RH  070%=      5-min Rain = 0
KLO1 231944Z 05010KT 22/17 A2999 RMK A01 T02210165  RH  070%=      5-min Rain = 0
KLO1 231945Z 05008KT 22/16 A2998 RMK A01 T02220162  RH  069%=      5-min Rain = 0
KLO1 231946Z 05005KT 22/16 A2998 RMK A01 T02220163  RH  069%=      5-min Rain = 0
KLO1 231947Z 03009KT 22/16 A2998 RMK A01 T02220164  RH  070%=      5-min Rain = 0
KLO1 231948Z 04009KT 22/17 A2998 RMK A01 T02220165  RH  070%=      5-min Rain = 0
KLO1 231949Z 05008KT 22/16 A2998 RMK A01 T02220163  RH  069%=      5-min Rain = 0
KLO1 231950Z 04009KT 22/17 A2998 RMK A01 T02220169  RH  072%=      5-min Rain = 0
KLO1 231951Z 05010KT 22/16 A2998 RMK A01 T02230163  RH  069%=      5-min Rain = 0
KLO1 231952Z 04008KT 22/16 A2998 RMK A01 T02210161  RH  069%=      5-min Rain = 0
KLO1 231953Z 04009KT 22/16 A2998 RMK A01 T02190161  RH  070%=      5-min Rain = 0
KLO1 231954Z 04009KT 22/16 A2998 RMK A01 T02180161  RH  070%=      5-min Rain = 0
KLO1 231955Z 05007KT 22/16 A2998 RMK A01 T02180161  RH  070%=      5-min Rain = 0
KLO1 231956Z 04007KT 22/16 A2998 RMK A01 T02170162  RH  071%=      5-min Rain = 0
KLO1 231957Z 04010KT 22/16 A2998 RMK A01 T02180162  RH  070%=      5-min Rain = 0
KLO1 231958Z 05009KT 22/16 A2998 RMK A01 T02180162  RH  070%=      5-min Rain = 0
KLO1 231959Z 06007KT 22/16 A2998 RMK A01 T02180160  RH  070%=      5-min Rain = 0
KLO1 232000Z 06006KT 22/16 A2998 RMK A01 T02170158  RH  069%=      5-min Rain = 0
KLO1 232001Z 06009KT 22/16 A2998 RMK A01 T02160161  RH  071%=      5-min Rain = 0
KLO1 232002Z 06011KT 22/16 A2998 RMK A01 T02160161  RH  071%=      5-min Rain = 0
KLO1 232003Z 06008KT 22/16 A2998 RMK A01 T02160160  RH  071%=      5-min Rain = 0
KLO1 232004Z 05009KT 22/16 A2998 RMK A01 T02160160  RH  071%=      5-min Rain = 0
KLO1 232005Z 07008KT 22/16 A2998 RMK A01 T02150160  RH  071%=      5-min Rain = 0
KLO1 232006Z 06008KT 22/16 A2998 RMK A01 T02150159  RH  070%=      5-min Rain = 0
KLO1 232007Z 06007KT 22/16 A2998 RMK A01 T02150158  RH  070%=      5-min Rain = 0
KLO1 232008Z 05005KT 21/16 A2998 RMK A01 T02140160  RH  071%=      5-min Rain = 0
KLO1 232009Z 04007KT 22/16 A2998 RMK A01 T02150159  RH  071%=      5-min Rain = 0
KLO1 232010Z 05007KT 22/16 A2998 RMK A01 T02150159  RH  071%=      5-min Rain = 0
KLO1 232011Z 06006KT 22/16 A2998 RMK A01 T02150158  RH  070%=      5-min Rain = 0
KLO1 232012Z 06006KT 22/16 A2997 RMK A01 T02150160  RH  070%=      5-min Rain = 0
KLO1 232013Z 05007KT 22/16 A2997 RMK A01 T02160159  RH  070%=      5-min Rain = 0
KLO1 232014Z 06008KT 22/16 A2997 RMK A01 T02160161  RH  071%=      5-min Rain = 0
KLO1 232015Z 07007KT 22/16 A2997 RMK A01 T02170158  RH  069%=      5-min Rain = 0
KLO1 232016Z 06005KT 22/16 A2997 RMK A01 T02170156  RH  068%=      5-min Rain = 0
KLO1 232017Z 07005KT 22/16 A2997 RMK A01 T02170155  RH  068%=      5-min Rain = 0
KLO1 232018Z 06006KT 22/16 A2997 RMK A01 T02180157  RH  068%=      5-min Rain = 0
KLO1 232019Z 07006KT 22/16 A2997 RMK A01 T02180155  RH  067%=      5-min Rain = 0
KLO1 232020Z 07005KT 22/16 A2997 RMK A01 T02180155  RH  067%=      5-min Rain = 0
KLO1 232021Z 08007KT 22/16 A2997 RMK A01 T02200161  RH  069%=      5-min Rain = 0
KLO1 232022Z 08008KT 22/16 A2997 RMK A01 T02220158  RH  067%=      5-min Rain = 0
KLO1 232023Z 06007KT 22/16 A2996 RMK A01 T02240159  RH  067%=      5-min Rain = 0
KLO1 232024Z 07007KT 22/16 A2996 RMK A01 T02240158  RH  066%=      5-min Rain = 0
KLO1 232025Z 07007KT 22/16 A2996 RMK A01 T02240157  RH  066%=      5-min Rain = 0
KLO1 232026Z 07010KT 23/16 A2996 RMK A01 T02250160  RH  066%=      5-min Rain = 0
KLO1 232027Z 06007KT 23/16 A2996 RMK A01 T02270157  RH  065%=      5-min Rain = 0
KLO1 232028Z 07005KT 23/16 A2996 RMK A01 T02270161  RH  066%=      5-min Rain = 0
KLO1 232029Z 06009KT 23/16 A2996 RMK A01 T02300163  RH  066%=      5-min Rain = 0
KLO1 232030Z 06009KT 23/16 A2996 RMK A01 T02320163  RH  065%=      5-min Rain = 0
KLO1 232031Z 07008KT 23/16 A2996 RMK A01 T02320160  RH  064%=      5-min Rain = 0
KLO1 232032Z 05008KT 23/16 A2996 RMK A01 T02310161  RH  065%=      5-min Rain = 0
KLO1 232033Z 06009KT 23/16 A2996 RMK A01 T02320164  RH  066%=      5-min Rain = 0
KLO1 232034Z 06007KT 23/16 A2996 RMK A01 T02320162  RH  065%=      5-min Rain = 0
KLO1 232035Z 08008KT 23/16 A2996 RMK A01 T02330164  RH  065%=      5-min Rain = 0
KLO1 232036Z 11007KT 24/16 A2996 RMK A01 T02350162  RH  064%=      5-min Rain = 0
KLO1 232037Z 08007KT 24/16 A2996 RMK A01 T02360163  RH  064%=      5-min Rain = 0
KLO1 232038Z 08011KT 24/16 A2996 RMK A01 T02370163  RH  063%=      5-min Rain = 0
KLO1 232039Z 07011KT 24/16 A2996 RMK A01 T02350162  RH  064%=      5-min Rain = 0
KLO1 232040Z 07010KT 23/16 A2996 RMK A01 T02320159  RH  064%=      5-min Rain = 0
KLO1 232041Z 08008KT 23/16 A2996 RMK A01 T02280158  RH  064%=      5-min Rain = 0
KLO1 232042Z 06009KT 23/16 A2995 RMK A01 T02260159  RH  066%=      5-min Rain = 0
KLO1 232043Z 04010KT 23/16 A2995 RMK A01 T02250159  RH  066%=      5-min Rain = 0
KLO1 232044Z 06011KT 23/16 A2995 RMK A01 T02250161  RH  067%=      5-min Rain = 0
KLO1 232045Z 09009KT 23/16 A2995 RMK A01 T02270161  RH  066%=      5-min Rain = 0
KLO1 232046Z 09008KT 23/16 A2995 RMK A01 T02270158  RH  065%=      5-min Rain = 0
KLO1 232047Z 08008KT 23/16 A2995 RMK A01 T02280157  RH  064%=      5-min Rain = 0
KLO1 232048Z 08007KT 23/15 A2995 RMK A01 T02280153  RH  063%=      5-min Rain = 0
KLO1 232049Z 07005KT 23/15 A2995 RMK A01 T02270153  RH  063%=      5-min Rain = 0
KLO1 232050Z 06004KT 23/16 A2995 RMK A01 T02290163  RH  066%=      5-min Rain = 0
KLO1 232051Z 06009KT 23/16 A2995 RMK A01 T02330163  RH  065%=      5-min Rain = 0
KLO1 232052Z 06008KT 24/16 A2994 RMK A01 T02350163  RH  064%=      5-min Rain = 0
KLO1 232053Z 09008KT 24/16 A2994 RMK A01 T02350162  RH  063%=      5-min Rain = 0
KLO1 232054Z 08008KT 24/16 A2994 RMK A01 T02360158  RH  062%=      5-min Rain = 0
KLO1 232055Z 05007KT 23/15 A2994 RMK A01 T02330153  RH  061%=      5-min Rain = 0
KLO1 232056Z 05007KT 23/16 A2994 RMK A01 T02310155  RH  062%=      5-min Rain = 0
KLO1 232057Z 07007KT 23/16 A2994 RMK A01 T02290155  RH  063%=      5-min Rain = 0
KLO1 232058Z 07007KT 23/15 A2993 RMK A01 T02300151  RH  061%=      5-min Rain = 0
KLO1 232059Z 04009KT 23/16 A2993 RMK A01 T02300160  RH  064%=      5-min Rain = 0
KLO1 232100Z 04011KT 23/16 A2993 RMK A01 T02330156  RH  062%=      5-min Rain = 0
KLO1 232101Z 04009G14KT 23/16 A2992 RMK A01 T02340156  RH  062%=      5-min Rain = 0
KLO1 232102Z 04011KT 23/16 A2992 RMK A01 T02330156  RH  062%=      5-min Rain = 0
KLO1 232103Z 04011KT 23/16 A2992 RMK A01 T02330157  RH  062%=      5-min Rain = 0
KLO1 232104Z 04010KT 23/16 A2992 RMK A01 T02330156  RH  062%=      5-min Rain = 0
KLO1 232105Z 03006KT 23/16 A2993 RMK A01 T02330162  RH  064%=      5-min Rain = 0
KLO1 232106Z 05009KT 24/17 A2993 RMK A01 T02360166  RH  065%=      5-min Rain = 0
KLO1 232107Z 06011KT 24/16 A2993 RMK A01 T02390160  RH  061%=      5-min Rain = 0
KLO1 232108Z 06009KT 24/16 A2993 RMK A01 T02350158  RH  062%=      5-min Rain = 0
KLO1 232109Z 07009KT 23/16 A2993 RMK A01 T02320156  RH  062%=      5-min Rain = 0
KLO1 232110Z 07008KT 23/16 A2993 RMK A01 T02290156  RH  063%=      5-min Rain = 0
KLO1 232111Z 08008KT 23/16 A2994 RMK A01 T02280155  RH  064%=      5-min Rain = 0
KLO1 232112Z 06010KT 23/16 A2994 RMK A01 T02260155  RH  064%=      5-min Rain = 0
KLO1 232113Z 06011KT 22/16 A2994 RMK A01 T02240156  RH  065%=      5-min Rain = 0
KLO1 232114Z 08010KT 22/16 A2994 RMK A01 T02230158  RH  067%=      5-min Rain = 0
KLO1 232115Z 07010KT 22/16 A2994 RMK A01 T02220156  RH  066%=      5-min Rain = 0
KLO1 232116Z 06008KT 22/16 A2994 RMK A01 T02220156  RH  066%=      5-min Rain = 0
KLO1 232117Z 06008KT 22/16 A2993 RMK A01 T02210158  RH  067%=      5-min Rain = 0
KLO1 232118Z 06011KT 22/16 A2993 RMK A01 T02200157  RH  067%=      5-min Rain = 0
KLO1 232119Z 04013KT 22/16 A2992 RMK A01 T02200157  RH  067%=      5-min Rain = 0
KLO1 232120Z 05014KT 22/16 A2992 RMK A01 T02200157  RH  068%=      5-min Rain = 0
KLO1 232121Z 04014KT 22/16 A2991 RMK A01 T02190155  RH  067%=      5-min Rain = 0
KLO1 232122Z 04011KT 22/16 A2991 RMK A01 T02190155  RH  067%=      5-min Rain = 0
KLO1 232123Z 04013KT 22/16 A2991 RMK A01 T02190157  RH  068%=      5-min Rain = 0
KLO1 232124Z 05012KT 22/16 A2991 RMK A01 T02180155  RH  067%=      5-min Rain = 0
KLO1 232125Z 06011KT 22/16 A2991 RMK A01 T02190156  RH  067%=      5-min Rain = 0
KLO1 232126Z 06011KT 22/16 A2991 RMK A01 T02180156  RH  068%=      5-min Rain = 0
KLO1 232127Z 06012KT 22/16 A2992 RMK A01 T02170156  RH  068%=      5-min Rain = 0
KLO1 232128Z 07010KT 22/16 A2992 RMK A01 T02160159  RH  070%=      5-min Rain = 0
KLO1 232129Z 07011KT 22/16 A2992 RMK A01 T02150159  RH  070%=      5-min Rain = 0
KLO1 232130Z 07010KT 21/16 A2992 RMK A01 T02130158  RH  071%=      5-min Rain = 0
KLO1 232131Z 07009KT 21/16 A2992 RMK A01 T02130159  RH  072%=      5-min Rain = 0
KLO1 232132Z 06009KT 21/16 A2992 RMK A01 T02120158  RH  071%=      5-min Rain = 0
KLO1 232133Z 07007KT 21/16 A2992 RMK A01 T02120160  RH  072%=      5-min Rain = 0
KLO1 232134Z 07007KT 21/16 A2992 RMK A01 T02110163  RH  074%=      5-min Rain = 0
KLO1 232135Z 07010KT 21/16 A2992 RMK A01 T02110161  RH  073%=      5-min Rain = 0
KLO1 232136Z 07011KT 21/16 A2992 RMK A01 T02100159  RH  072%=      5-min Rain = 0
KLO1 232137Z 07011KT 21/16 A2992 RMK A01 T02090160  RH  073%=      5-min Rain = 0
KLO1 232138Z 07009KT 21/16 A2992 RMK A01 T02090161  RH  074%=      5-min Rain = 0
KLO1 232139Z 06010KT 21/16 A2992 RMK A01 T02070163  RH  076%=      5-min Rain = 0.01
KLO1 232140Z 06010KT 21/16 A2992 RMK A01 T02060162  RH  076%=      5-min Rain = 0
KLO1 232141Z 07011KT 21/16 A2992 RMK A01 T02050162  RH  076%=      5-min Rain = 0.01
KLO1 232142Z 08013KT 20/16 A2992 RMK A01 T02040162  RH  076%=      5-min Rain = 0
KLO1 232143Z 08013KT 20/16 A2992 RMK A01 T02030163  RH  078%=      5-min Rain = 0.01
KLO1 232144Z 09014KT 20/17 A2992 RMK A01 T02020166  RH  080%=      5-min Rain = 0.02
KLO1 232145Z 09014KT 20/17 A2992 RMK A01 T02000165  RH  080%=      5-min Rain = 0.02
KLO1 232146Z 09014KT 20/17 A2992 RMK A01 T01990166  RH  081%=      5-min Rain = 0.02
KLO1 232147Z 09013KT 20/17 A2992 RMK A01 T01970165  RH  082%=      5-min Rain = 0.02
KLO1 232148Z 09012KT 20/17 A2992 RMK A01 T01960165  RH  082%=      5-min Rain = 0.02
KLO1 232149Z 09010KT 20/17 A2992 RMK A01 T01950166  RH  083%=      5-min Rain = 0.02
KLO1 232150Z 09010KT 20/17 A2992 RMK A01 T01950168  RH  084%=      5-min Rain = 0
KLO1 232151Z 10010KT 20/17 A2992 RMK A01 T01950169  RH  085%=      5-min Rain = 0.01
KLO1 232152Z 10010KT 19/17 A2993 RMK A01 T01940169  RH  085%=      5-min Rain = 0
KLO1 232153Z 11010KT 20/17 A2993 RMK A01 T01950169  RH  085%=      5-min Rain = 0.01
KLO1 232154Z 12011KT 19/17 A2993 RMK A01 T01940169  RH  085%=      5-min Rain = 0
KLO1 232155Z 12010KT 19/17 A2993 RMK A01 T01940170  RH  086%=      5-min Rain = 0.01
KLO1 232156Z 13010KT 19/17 A2993 RMK A01 T01930171  RH  087%=      5-min Rain = 0.01
KLO1 232157Z 14011KT 19/17 A2993 RMK A01 T01920171  RH  087%=      5-min Rain = 0
KLO1 232158Z 15014KT 19/17 A2993 RMK A01 T01920169  RH  087%=      5-min Rain = 0.01
KLO1 232159Z 15013KT 19/16 A2993 RMK A01 T01870160  RH  084%=      5-min Rain = 0.01
KLO1 232200Z 14012KT 18/16 A2993 RMK A01 T01830159  RH  086%=      5-min Rain = 0
KLO1 232201Z 14010KT 18/16 A2993 RMK A01 T01800160  RH  088%=      5-min Rain = 0.01
KLO1 232202Z 14010KT 18/16 A2993 RMK A01 T01790162  RH  090%=      5-min Rain = 0.01
KLO1 232203Z 15010KT 18/16 A2994 RMK A01 T01790164  RH  091%=      5-min Rain = 0.02
KLO1 232204Z 16013KT 18/17 A2994 RMK A01 T01800165  RH  091%=      5-min Rain = 0.01
KLO1 232205Z 15012KT 18/17 A2995 RMK A01 T01810167  RH  092%=      5-min Rain = 0.01
KLO1 232206Z 14010KT 18/17 A2995 RMK A01 T01820168  RH  092%=      5-min Rain = 0.01
KLO1 232207Z 14009KT 18/17 A2995 RMK A01 T01820169  RH  092%=      5-min Rain = 0.01
KLO1 232208Z 14009KT 18/17 A2995 RMK A01 T01830169  RH  091%=      5-min Rain = 0
KLO1 232209Z 14007KT 18/17 A2994 RMK A01 T01840169  RH  091%=      5-min Rain = 0.02
KLO1 232210Z 13007KT 18/17 A2994 RMK A01 T01840170  RH  091%=      5-min Rain = 0
KLO1 232211Z 13006KT 19/17 A2994 RMK A01 T01850170  RH  091%=      5-min Rain = 0
KLO1 232212Z 12007KT 19/17 A2994 RMK A01 T01860171  RH  091%=      5-min Rain = 0.01
KLO1 232213Z 12006KT 19/17 A2994 RMK A01 T01860170  RH  090%=      5-min Rain = 0
KLO1 232214Z 12007KT 19/17 A2994 RMK A01 T01870171  RH  090%=      5-min Rain = 0
KLO1 232215Z 12006KT 19/17 A2994 RMK A01 T01880172  RH  090%=      5-min Rain = 0
KLO1 232216Z 12004KT 19/17 A2994 RMK A01 T01900174  RH  091%=      5-min Rain = 0
KLO1 232217Z 13005KT 19/18 A2994 RMK A01 T01910175  RH  090%=      5-min Rain = 0
KLO1 232218Z 14004KT 19/17 A2994 RMK A01 T01910173  RH  089%=      5-min Rain = 0
KLO1 232219Z 14003KT 19/18 A2994 RMK A01 T01930176  RH  090%=      5-min Rain = 0
KLO1 232220Z 15003KT 19/18 A2994 RMK A01 T01930176  RH  090%=      5-min Rain = 0
KLO1 232221Z 12001KT 19/18 A2994 RMK A01 T01930175  RH  089%=      5-min Rain = 0
KLO1 232222Z 10000KT 19/17 A2994 RMK A01 T01930174  RH  089%=      5-min Rain = 0
KLO1 232223Z 19002KT 20/18 A2994 RMK A01 T01950178  RH  090%=      5-min Rain = 0
KLO1 232224Z 23001KT 20/18 A2994 RMK A01 T01970180  RH  090%=      5-min Rain = 0
KLO1 232225Z 20001KT 20/18 A2994 RMK A01 T01980178  RH  088%=      5-min Rain = 0
KLO1 232226Z 21001KT 20/18 A2993 RMK A01 T01970175  RH  087%=      5-min Rain = 0
KLO1 232227Z 24001KT 20/18 A2993 RMK A01 T01970176  RH  087%=      5-min Rain = 0
KLO1 232228Z 25001KT 20/17 A2993 RMK A01 T01980172  RH  085%=      5-min Rain = 0
KLO1 232229Z 24002KT 20/17 A2993 RMK A01 T01990172  RH  084%=      5-min Rain = 0
KLO1 232230Z 29002KT 20/17 A2993 RMK A01 T01990170  RH  083%=      5-min Rain = 0
KLO1 232231Z 30003KT 20/17 A2993 RMK A01 T02000174  RH  085%=      5-min Rain = 0
KLO1 232232Z 30002KT 20/17 A2993 RMK A01 T01990173  RH  085%=      5-min Rain = 0
KLO1 232233Z 29002KT 20/17 A2993 RMK A01 T01990171  RH  084%=      5-min Rain = 0
KLO1 232234Z 32001KT 20/17 A2993 RMK A01 T01990172  RH  085%=      5-min Rain = 0
KLO1 232235Z 31002KT 20/18 A2993 RMK A01 T01990175  RH  086%=      5-min Rain = 0
KLO1 232236Z 30003KT 20/17 A2993 RMK A01 T02010174  RH  084%=      5-min Rain = 0
KLO1 232237Z 31003KT 20/17 A2993 RMK A01 T02010173  RH  084%=      5-min Rain = 0
KLO1 232238Z 30002KT 20/17 A2993 RMK A01 T02010174  RH  085%=      5-min Rain = 0
KLO1 232239Z 30003KT 20/17 A2993 RMK A01 T02010173  RH  084%=      5-min Rain = 0
KLO1 232240Z 32003KT 20/17 A2993 RMK A01 T02010173  RH  084%=      5-min Rain = 0
KLO1 232241Z 33004KT 20/18 A2993 RMK A01 T02020176  RH  085%=      5-min Rain = 0
KLO1 232242Z 34005KT 20/17 A2993 RMK A01 T02020173  RH  084%=      5-min Rain = 0
KLO1 232243Z 34004KT 20/17 A2993 RMK A01 T02010174  RH  084%=      5-min Rain = 0
KLO1 232244Z 33004KT 20/18 A2994 RMK A01 T02020178  RH  086%=      5-min Rain = 0
KLO1 232245Z 33005KT 20/18 A2994 RMK A01 T02020176  RH  085%=      5-min Rain = 0
KLO1 232246Z 34006KT 20/17 A2994 RMK A01 T02020174  RH  084%=      5-min Rain = 0
KLO1 232247Z 34006KT 20/18 A2994 RMK A01 T02010175  RH  085%=      5-min Rain = 0.01
KLO1 232248Z 33007KT 20/18 A2994 RMK A01 T02000175  RH  085%=      5-min Rain = 0
KLO1 232249Z 33009KT 20/17 A2994 RMK A01 T01980173  RH  085%=      5-min Rain = 0
KLO1 232250Z 33008KT 20/17 A2994 RMK A01 T01960170  RH  085%=      5-min Rain = 0
KLO1 232251Z 34006KT 19/17 A2994 RMK A01 T01940170  RH  086%=      5-min Rain = 0
KLO1 232252Z 35006KT 19/17 A2994 RMK A01 T01930172  RH  087%=      5-min Rain = 0
KLO1 232253Z 35005KT 19/17 A2994 RMK A01 T01930171  RH  087%=      5-min Rain = 0
KLO1 232254Z 34007KT 19/17 A2994 RMK A01 T01930172  RH  087%=      5-min Rain = 0
KLO1 232255Z 34006KT 19/17 A2994 RMK A01 T01930171  RH  087%=      5-min Rain = 0
KLO1 232256Z 34005KT 19/17 A2994 RMK A01 T01920171  RH  087%=      5-min Rain = 0
KLO1 232257Z 35006KT 19/17 A2994 RMK A01 T01920171  RH  088%=      5-min Rain = 0
KLO1 232258Z 34007KT 19/17 A2994 RMK A01 T01910171  RH  088%=      5-min Rain = 0
KLO1 232259Z 35007KT 19/17 A2994 RMK A01 T01910170  RH  088%=      5-min Rain = 0
KLO1 232300Z 35007KT 19/17 A2994 RMK A01 T01910169  RH  087%=      5-min Rain = 0
KLO1 232301Z 35007KT 19/17 A2994 RMK A01 T01910171  RH  088%=      5-min Rain = 0
KLO1 232302Z 35008KT 19/17 A2994 RMK A01 T01910170  RH  088%=      5-min Rain = 0
KLO1 232303Z 00008KT 19/17 A2994 RMK A01 T01910170  RH  088%=      5-min Rain = 0
KLO1 232304Z 00008KT 19/17 A2994 RMK A01 T01910170  RH  088%=      5-min Rain = 0
KLO1 232305Z 00008KT 19/17 A2994 RMK A01 T01900169  RH  087%=      5-min Rain = 0
KLO1 232306Z 00008KT 19/17 A2993 RMK A01 T01900168  RH  087%=      5-min Rain = 0
KLO1 232307Z 00009KT 19/17 A2993 RMK A01 T01900169  RH  088%=      5-min Rain = 0
KLO1 232308Z 00008KT 19/17 A2993 RMK A01 T01900167  RH  087%=      5-min Rain = 0
KLO1 232309Z 00008KT 19/17 A2993 RMK A01 T01890166  RH  086%=      5-min Rain = 0
KLO1 232310Z 36007KT 19/16 A2993 RMK A01 T01880162  RH  085%=      5-min Rain = 0
KLO1 232311Z 00006KT 19/16 A2993 RMK A01 T01870160  RH  084%=      5-min Rain = 0
KLO1 232312Z 03006KT 19/16 A2994 RMK A01 T01870160  RH  084%=      5-min Rain = 0
KLO1 232313Z 08007KT 19/16 A2994 RMK A01 T01870162  RH  085%=      5-min Rain = 0
KLO1 232314Z 09008KT 19/16 A2994 RMK A01 T01870162  RH  085%=      5-min Rain = 0
KLO1 232315Z 10008KT 19/16 A2994 RMK A01 T01860158  RH  084%=      5-min Rain = 0
KLO1 232316Z 09007KT 18/15 A2994 RMK A01 T01830154  RH  083%=      5-min Rain = 0
KLO1 232317Z 10006KT 18/15 A2994 RMK A01 T01810154  RH  084%=      5-min Rain = 0
KLO1 232318Z 10006KT 18/15 A2994 RMK A01 T01800154  RH  085%=      5-min Rain = 0
KLO1 232319Z 09008KT 18/16 A2994 RMK A01 T01800156  RH  086%=      5-min Rain = 0
KLO1 232320Z 08007KT 18/16 A2994 RMK A01 T01800155  RH  085%=      5-min Rain = 0
KLO1 232321Z 08005KT 18/15 A2994 RMK A01 T01790152  RH  084%=      5-min Rain = 0
KLO1 232322Z 05003KT 18/15 A2994 RMK A01 T01790151  RH  084%=      5-min Rain = 0
KLO1 232323Z 04004KT 18/15 A2994 RMK A01 T01790147  RH  081%=      5-min Rain = 0
KLO1 232324Z 04003KT 18/15 A2994 RMK A01 T01780147  RH  082%=      5-min Rain = 0
KLO1 232325Z 04004KT 18/15 A2994 RMK A01 T01790147  RH  081%=      5-min Rain = 0
KLO1 232326Z 05005KT 18/15 A2994 RMK A01 T01790148  RH  082%=      5-min Rain = 0
KLO1 232327Z 04005KT 18/15 A2994 RMK A01 T01800145  RH  080%=      5-min Rain = 0
KLO1 232328Z 04006KT 18/14 A2994 RMK A01 T01800144  RH  080%=      5-min Rain = 0
KLO1 232329Z 04005KT 18/15 A2994 RMK A01 T01800147  RH  081%=      5-min Rain = 0
KLO1 232330Z 03006KT 18/15 A2994 RMK A01 T01810151  RH  082%=      5-min Rain = 0
KLO1 232331Z 02005KT 18/15 A2994 RMK A01 T01830153  RH  083%=      5-min Rain = 0
KLO1 232332Z 02004KT 18/15 A2994 RMK A01 T01830153  RH  082%=      5-min Rain = 0
KLO1 232333Z 04005KT 18/16 A2994 RMK A01 T01840156  RH  084%=      5-min Rain = 0
KLO1 232334Z 04006KT 18/16 A2993 RMK A01 T01840155  RH  083%=      5-min Rain = 0
KLO1 232335Z 04005KT 19/16 A2993 RMK A01 T01850158  RH  084%=      5-min Rain = 0
KLO1 232336Z 06005KT 18/16 A2993 RMK A01 T01840156  RH  084%=      5-min Rain = 0
KLO1 232337Z 07006KT 18/16 A2993 RMK A01 T01840155  RH  083%=      5-min Rain = 0
KLO1 232338Z 06006KT 19/16 A2992 RMK A01 T01850156  RH  083%=      5-min Rain = 0
KLO1 232339Z 06007KT 18/16 A2992 RMK A01 T01840156  RH  084%=      5-min Rain = 0
KLO1 232340Z 05007KT 19/16 A2993 RMK A01 T01850156  RH  083%=      5-min Rain = 0
KLO1 232341Z 05006KT 19/16 A2993 RMK A01 T01850157  RH  084%=      5-min Rain = 0
KLO1 232342Z 05007KT 18/16 A2993 RMK A01 T01840156  RH  084%=      5-min Rain = 0
KLO1 232343Z 04008KT 19/16 A2993 RMK A01 T01850155  RH  083%=      5-min Rain = 0
KLO1 232344Z 04008KT 18/16 A2993 RMK A01 T01840155  RH  083%=      5-min Rain = 0
KLO1 232345Z 04008KT 18/16 A2993 RMK A01 T01840155  RH  083%=      5-min Rain = 0
KLO1 232346Z 04007KT 18/16 A2993 RMK A01 T01840155  RH  083%=      5-min Rain = 0
KLO1 232347Z 04007KT 18/16 A2993 RMK A01 T01840156  RH  084%=      5-min Rain = 0
KLO1 232348Z 04007KT 18/16 A2993 RMK A01 T01840156  RH  084%=      5-min Rain = 0
KLO1 232349Z 04007KT 18/16 A2993 RMK A01 T01840156  RH  084%=      5-min Rain = 0
KLO1 232350Z 04007KT 18/16 A2993 RMK A01 T01840157  RH  085%=      5-min Rain = 0
KLO1 232351Z 03006KT 18/16 A2993 RMK A01 T01840157  RH  084%=      5-min Rain = 0
KLO1 232352Z 03007KT 18/16 A2993 RMK A01 T01830157  RH  085%=      5-min Rain = 0
KLO1 232353Z 03006KT 18/16 A2993 RMK A01 T01830157  RH  085%=      5-min Rain = 0
KLO1 232354Z 03006KT 18/16 A2993 RMK A01 T01830158  RH  085%=      5-min Rain = 0
KLO1 232355Z 03007KT 18/16 A2993 RMK A01 T01830159  RH  086%=      5-min Rain = 0
KLO1 232356Z 03007KT 18/16 A2993 RMK A01 T01840159  RH  086%=      5-min Rain = 0
KLO1 232357Z 04007KT 18/16 A2993 RMK A01 T01840160  RH  086%=      5-min Rain = 0
KLO1 232358Z 03006KT 18/16 A2993 RMK A01 T01840161  RH  087%=      5-min Rain = 0
KLO1 232359Z 04007KT 18/16 A2993 RMK A01 T01840162  RH  087%=      5-min Rain = 0
KLO1 240000Z 04006KT 18/16 A2993 RMK A01 T01840162  RH  087%=      5-min Rain = 0
KLO1 240001Z 05005KT 18/16 A2993 RMK A01 T01840162  RH  087%=      5-min Rain = 0
KLO1 240002Z 06005KT 18/16 A2993 RMK A01 T01840162  RH  087%=      5-min Rain = 0
KLO1 240003Z 05006KT 18/16 A2993 RMK A01 T01840163  RH  088%=      5-min Rain = 0
KLO1 240004Z 05006KT 19/17 A2993 RMK A01 T01850165  RH  088%=      5-min Rain = 0
KLO1 240005Z 05007KT 19/17 A2993 RMK A01 T01850165  RH  088%=      5-min Rain = 0
KLO1 240006Z 04006KT 19/17 A2993 RMK A01 T01850166  RH  088%=      5-min Rain = 0
KLO1 240007Z 03005KT 19/17 A2993 RMK A01 T01850166  RH  088%=      5-min Rain = 0
KLO1 240008Z 03007KT 19/17 A2993 RMK A01 T01860167  RH  089%=      5-min Rain = 0
KLO1 240009Z 03007KT 19/17 A2993 RMK A01 T01850167  RH  089%=      5-min Rain = 0
KLO1 240010Z 03007KT 19/17 A2993 RMK A01 T01860167  RH  089%=      5-min Rain = 0
KLO1 240011Z 01007KT 19/17 A2993 RMK A01 T01860168  RH  090%=      5-min Rain = 0
KLO1 240012Z 01008KT 19/17 A2993 RMK A01 T01860168  RH  089%=      5-min Rain = 0
KLO1 240013Z 00010KT 19/17 A2993 RMK A01 T01860167  RH  089%=      5-min Rain = 0
KLO1 240014Z 00011KT 19/17 A2993 RMK A01 T01860167  RH  089%=      5-min Rain = 0
KLO1 240015Z 00011KT 19/17 A2993 RMK A01 T01850167  RH  089%=      5-min Rain = 0
KLO1 240016Z 00012KT 19/17 A2993 RMK A01 T01860168  RH  089%=      5-min Rain = 0
KLO1 240017Z 01012KT 19/17 A2992 RMK A01 T01860168  RH  089%=      5-min Rain = 0
KLO1 240018Z 01013KT 19/17 A2992 RMK A01 T01860168  RH  089%=      5-min Rain = 0
KLO1 240019Z 00011KT 19/17 A2992 RMK A01 T01860169  RH  090%=      5-min Rain = 0
KLO1 240020Z 00011KT 19/17 A2992 RMK A01 T01850167  RH  089%=      5-min Rain = 0
KLO1 240021Z 00011KT 18/17 A2992 RMK A01 T01840166  RH  089%=      5-min Rain = 0
KLO1 240022Z 01010KT 18/17 A2992 RMK A01 T01840167  RH  090%=      5-min Rain = 0
KLO1 240023Z 01010KT 18/17 A2992 RMK A01 T01840167  RH  090%=      5-min Rain = 0
KLO1 240024Z 01011KT 18/17 A2992 RMK A01 T01840168  RH  090%=      5-min Rain = 0
KLO1 240025Z 01012KT 18/17 A2992 RMK A01 T01840167  RH  090%=      5-min Rain = 0
KLO1 240026Z 02013KT 18/17 A2992 RMK A01 T01840168  RH  090%=      5-min Rain = 0
KLO1 240027Z 01012KT 18/17 A2992 RMK A01 T01830167  RH  090%=      5-min Rain = 0
KLO1 240028Z 01012KT 18/17 A2992 RMK A01 T01830166  RH  090%=      5-min Rain = 0
KLO1 240029Z 00017KT 18/16 A2992 RMK A01 T01820162  RH  088%=      5-min Rain = 0
KLO1 240030Z 01017KT 18/16 A2992 RMK A01 T01810160  RH  088%=      5-min Rain = 0
KLO1 240031Z 02018KT 18/16 A2992 RMK A01 T01810160  RH  088%=      5-min Rain = 0
KLO1 240032Z 02021KT 18/16 A2992 RMK A01 T01800159  RH  087%=      5-min Rain = 0
KLO1 240033Z 02018KT 18/16 A2992 RMK A01 T01800155  RH  086%=      5-min Rain = 0
KLO1 240034Z 02017KT 18/15 A2993 RMK A01 T01780152  RH  085%=      5-min Rain = 0
KLO1 240035Z 02016KT 18/15 A2993 RMK A01 T01770150  RH  084%=      5-min Rain = 0
KLO1 240036Z 03018KT 18/15 A2993 RMK A01 T01760149  RH  084%=      5-min Rain = 0
KLO1 240037Z 03016KT 18/15 A2993 RMK A01 T01750148  RH  084%=      5-min Rain = 0
KLO1 240038Z 03014KT 17/15 A2993 RMK A01 T01740149  RH  085%=      5-min Rain = 0
KLO1 240039Z 03015KT 17/15 A2992 RMK A01 T01730149  RH  085%=      5-min Rain = 0
KLO1 240040Z 03015KT 17/15 A2992 RMK A01 T01730148  RH  085%=      5-min Rain = 0
KLO1 240041Z 03017KT 17/15 A2992 RMK A01 T01730147  RH  085%=      5-min Rain = 0
KLO1 240042Z 04017KT 17/15 A2992 RMK A01 T01720146  RH  085%=      5-min Rain = 0
KLO1 240043Z 04014KT 17/15 A2992 RMK A01 T01720146  RH  085%=      5-min Rain = 0
KLO1 240044Z 05015KT 17/15 A2992 RMK A01 T01720146  RH  085%=      5-min Rain = 0
KLO1 240045Z 04015KT 17/15 A2992 RMK A01 T01710146  RH  085%=      5-min Rain = 0
KLO1 240046Z 04016G21KT 17/15 A2992 RMK A01 T01710145  RH  085%=      5-min Rain = 0
KLO1 240047Z 04018KT 17/14 A2992 RMK A01 T01700144  RH  084%=      5-min Rain = 0
KLO1 240048Z 03017KT 17/14 A2992 RMK A01 T01700144  RH  085%=      5-min Rain = 0
KLO1 240049Z 03016KT 17/15 A2992 RMK A01 T01690145  RH  086%=      5-min Rain = 0
KLO1 240050Z 03020KT 17/15 A2991 RMK A01 T01680145  RH  086%=      5-min Rain = 0
KLO1 240051Z 03017KT 17/15 A2992 RMK A01 T01680145  RH  086%=      5-min Rain = 0
KLO1 240052Z 03019KT 17/15 A2992 RMK A01 T01670146  RH  087%=      5-min Rain = 0
KLO1 240053Z 01015KT 17/15 A2992 RMK A01 T01670147  RH  088%=      5-min Rain = 0
KLO1 240054Z 01017G22KT 17/15 A2993 RMK A01 T01660147  RH  088%=      5-min Rain = 0
KLO1 240055Z 01016G22KT 17/15 A2993 RMK A01 T01650147  RH  089%=      5-min Rain = 0
KLO1 240056Z 01018KT 16/15 A2993 RMK A01 T01640146  RH  089%=      5-min Rain = 0.01
KLO1 240057Z 01017KT 16/15 A2993 RMK A01 T01630145  RH  089%=      5-min Rain = 0
KLO1 240058Z 01018KT 16/15 A2993 RMK A01 T01610145  RH  090%=      5-min Rain = 0
KLO1 240059Z 01018G23KT 16/15 A2993 RMK A01 T01610145  RH  090%=      5-min Rain = 0
KLO1 240100Z 00018G24KT 16/14 A2993 RMK A01 T01600144  RH  090%=      5-min Rain = 0.01
KLO1 240101Z 00021G26KT 16/14 A2993 RMK A01 T01590143  RH  090%=      5-min Rain = 0
KLO1 240102Z 00016G21KT 16/14 A2993 RMK A01 T01590143  RH  090%=      5-min Rain = 0
KLO1 240103Z 00017KT 16/14 A2993 RMK A01 T01580143  RH  091%=      5-min Rain = 0
KLO1 240104Z 36018KT 16/14 A2993 RMK A01 T01580143  RH  091%=      5-min Rain = 0.01
KLO1 240105Z 35018G23KT 16/14 A2993 RMK A01 T01570142  RH  091%=      5-min Rain = 0.01
KLO1 240106Z 34022KT 16/14 A2993 RMK A01 T01570143  RH  091%=      5-min Rain = 0
KLO1 240107Z 34020G26KT 16/14 A2993 RMK A01 T01560143  RH  092%=      5-min Rain = 0.03
KLO1 240108Z 35022KT 16/14 A2993 RMK A01 T01550143  RH  092%=      5-min Rain = 0.01
KLO1 240109Z 35021G26KT 15/14 A2993 RMK A01 T01540142  RH  093%=      5-min Rain = 0.01
KLO1 240110Z 35021KT 15/14 A2993 RMK A01 T01530142  RH  093%=      5-min Rain = 0.01
KLO1 240111Z 35015KT 15/14 A2993 RMK A01 T01530142  RH  093%=      5-min Rain = 0.03
KLO1 240112Z 35011KT 15/14 A2993 RMK A01 T01520142  RH  094%=      5-min Rain = 0.05
KLO1 240113Z 35018KT 15/14 A2993 RMK A01 T01510141  RH  094%=      5-min Rain = 0.04
KLO1 240114Z 36016KT 15/14 A2993 RMK A01 T01490139  RH  094%=      5-min Rain = 0.06
KLO1 240115Z 00016KT 15/14 A2994 RMK A01 T01470138  RH  094%=      5-min Rain = 0.08
KLO1 240116Z 36019KT 15/14 A2994 RMK A01 T01460138  RH  095%=      5-min Rain = 0.05
KLO1 240117Z 01018KT 15/14 A2995 RMK A01 T01460139  RH  095%=      5-min Rain = 0.05
KLO1 240118Z 00022KT 15/14 A2995 RMK A01 T01460139  RH  096%=      5-min Rain = 0.05
KLO1 240119Z 00017KT 15/14 A2995 RMK A01 T01460139  RH  096%=      5-min Rain = 0.05
KLO1 240120Z 00018KT 15/14 A2996 RMK A01 T01460139  RH  096%=      5-min Rain = 0.05
KLO1 240121Z 00016G21KT 15/14 A2996 RMK A01 T01450139  RH  096%=      5-min Rain = 0.09
KLO1 240122Z 01018KT 14/14 A2996 RMK A01 T01440138  RH  096%=      5-min Rain = 0.07
KLO1 240123Z 01016G21KT 14/14 A2997 RMK A01 T01440138  RH  096%=      5-min Rain = 0.04
KLO1 240124Z 01016KT 14/14 A2997 RMK A01 T01440138  RH  096%=      5-min Rain = 0.03
KLO1 240125Z 01018KT 14/14 A2997 RMK A01 T01430137  RH  096%=      5-min Rain = 0.03
KLO1 240126Z 01015KT 14/14 A2996 RMK A01 T01430137  RH  096%=      5-min Rain = 0.02
KLO1 240127Z 01017KT 14/14 A2996 RMK A01 T01430138  RH  096%=      5-min Rain = 0.02
KLO1 240128Z 34011KT 14/14 A2995 RMK A01 T01430138  RH  097%=      5-min Rain = 0.03
KLO1 240129Z 34009G25KT 14/14 A2994 RMK A01 T01440138  RH  097%=      5-min Rain = 0.02
KLO1 240130Z 01022KT 14/14 A2995 RMK A01 T01430138  RH  097%=      5-min Rain = 0.03
KLO1 240131Z 01019KT 14/14 A2995 RMK A01 T01430138  RH  097%=      5-min Rain = 0.02
KLO1 240132Z 01019KT 14/14 A2995 RMK A01 T01430138  RH  097%=      5-min Rain = 0.02
KLO1 240133Z 01016KT 14/14 A2995 RMK A01 T01430138  RH  097%=      5-min Rain = 0.01
KLO1 240134Z 02020KT 14/14 A2995 RMK A01 T01430138  RH  097%=      5-min Rain = 0.01
KLO1 240135Z 01020KT 14/14 A2995 RMK A01 T01430138  RH  097%=      5-min Rain = 0.01
KLO1 240136Z 01018KT 14/14 A2995 RMK A01 T01430138  RH  097%=      5-min Rain = 0.01
KLO1 240137Z 02020KT 14/14 A2995 RMK A01 T01430138  RH  097%=      5-min Rain = 0
KLO1 240138Z 02021KT 14/14 A2995 RMK A01 T01430138  RH  097%=      5-min Rain = 0.01
KLO1 240139Z 01019KT 14/14 A2995 RMK A01 T01430138  RH  097%=      5-min Rain = 0
KLO1 240140Z 01015KT 14/14 A2995 RMK A01 T01430138  RH  097%=      5-min Rain = 0
KLO1 240141Z 01015KT 14/14 A2995 RMK A01 T01430138  RH  097%=      5-min Rain = 0.01
KLO1 240142Z 01016KT 14/14 A2995 RMK A01 T01430138  RH  097%=      5-min Rain = 0
KLO1 240143Z 02015G20KT 14/14 A2996 RMK A01 T01430138  RH  097%=      5-min Rain = 0
KLO1 240144Z 02019KT 14/14 A2996 RMK A01 T01430138  RH  097%=      5-min Rain = 0.01
KLO1 240145Z 02019KT 14/14 A2996 RMK A01 T01430138  RH  097%=      5-min Rain = 0
KLO1 240146Z 02016KT 14/14 A2996 RMK A01 T01430137  RH  096%=      5-min Rain = 0
KLO1 240147Z 02017KT 14/14 A2996 RMK A01 T01430137  RH  096%=      5-min Rain = 0
KLO1 240148Z 02018KT 14/14 A2996 RMK A01 T01430137  RH  096%=      5-min Rain = 0
KLO1 240149Z 02022KT 14/14 A2996 RMK A01 T01430137  RH  096%=      5-min Rain = 0.01
KLO1 240150Z 02021KT 14/14 A2995 RMK A01 T01430137  RH  096%=      5-min Rain = 0
KLO1 240151Z 02019KT 14/14 A2995 RMK A01 T01420137  RH  096%=      5-min Rain = 0
KLO1 240152Z 02019KT 14/14 A2995 RMK A01 T01420137  RH  096%=      5-min Rain = 0
KLO1 240153Z 02016KT 14/14 A2995 RMK A01 T01420137  RH  096%=      5-min Rain = 0.01
KLO1 240154Z 02016KT 14/14 A2996 RMK A01 T01420137  RH  096%=      5-min Rain = 0
KLO1 240155Z 01012KT 14/14 A2996 RMK A01 T01420136  RH  096%=      5-min Rain = 0
KLO1 240156Z 01012KT 14/14 A2996 RMK A01 T01430137  RH  096%=      5-min Rain = 0
KLO1 240157Z 01015KT 14/14 A2996 RMK A01 T01430137  RH  096%=      5-min Rain = 0.01
KLO1 240158Z 02013KT 14/14 A2996 RMK A01 T01430137  RH  096%=      5-min Rain = 0
KLO1 240159Z 01013KT 14/14 A2996 RMK A01 T01430137  RH  096%=      5-min Rain = 0
KLO1 240200Z 01016KT 14/14 A2996 RMK A01 T01430137  RH  096%=      5-min Rain = 0
KLO1 240201Z 01016KT 14/14 A2996 RMK A01 T01430137  RH  096%=      5-min Rain = 0.01
KLO1 240202Z 01016KT 14/14 A2996 RMK A01 T01420136  RH  096%=      5-min Rain = 0
KLO1 240203Z 01016KT 14/14 A2997 RMK A01 T01420136  RH  096%=      5-min Rain = 0
KLO1 240204Z 01014KT 14/14 A2997 RMK A01 T01420136  RH  096%=      5-min Rain = 0
KLO1 240205Z 00015G20KT 14/14 A2997 RMK A01 T01420137  RH  096%=      5-min Rain = 0
KLO1 240206Z 00018KT 14/14 A2997 RMK A01 T01420136  RH  096%=      5-min Rain = 0
KLO1 240207Z 01017KT 14/14 A2997 RMK A01 T01420136  RH  096%=      5-min Rain = 0
KLO1 240208Z 01012G17KT 14/14 A2997 RMK A01 T01420136  RH  096%=      5-min Rain = 0
KLO1 240209Z 01013KT 14/14 A2997 RMK A01 T01430137  RH  096%=      5-min Rain = 0
KLO1 240210Z 01018KT 14/14 A2997 RMK A01 T01430137  RH  096%=      5-min Rain = 0
KLO1 240211Z 01017G22KT 14/14 A2996 RMK A01 T01420136  RH  096%=      5-min Rain = 0
KLO1 240212Z 01019KT 14/14 A2996 RMK A01 T01420136  RH  096%=      5-min Rain = 0
KLO1 240213Z 01018KT 14/14 A2995 RMK A01 T01420136  RH  096%=      5-min Rain = 0
KLO1 240214Z 01019KT 14/14 A2995 RMK A01 T01420136  RH  096%=      5-min Rain = 0
KLO1 240215Z 01016KT 14/14 A2995 RMK A01 T01420135  RH  096%=      5-min Rain = 0
KLO1 240216Z 02015KT 14/14 A2995 RMK A01 T01410135  RH  096%=      5-min Rain = 0
KLO1 240217Z 02015KT 14/14 A2996 RMK A01 T01420136  RH  096%=      5-min Rain = 0
KLO1 240218Z 02015G22KT 14/14 A2996 RMK A01 T01420136  RH  096%=      5-min Rain = 0
KLO1 240219Z 02018KT 14/14 A2996 RMK A01 T01420136  RH  096%=      5-min Rain = 0
KLO1 240220Z 03019G24KT 14/14 A2996 RMK A01 T01410135  RH  096%=      5-min Rain = 0
KLO1 240221Z 03019KT 14/13 A2997 RMK A01 T01410134  RH  096%=      5-min Rain = 0
KLO1 240222Z 03018KT 14/13 A2997 RMK A01 T01400134  RH  096%=      5-min Rain = 0
KLO1 240223Z 03020KT 14/13 A2997 RMK A01 T01400134  RH  096%=      5-min Rain = 0
KLO1 240224Z 03020G26KT 14/13 A2997 RMK A01 T01400133  RH  096%=      5-min Rain = 0
KLO1 240225Z 02019KT 14/13 A2997 RMK A01 T01400133  RH  096%=      5-min Rain = 0
KLO1 240226Z 02021KT 14/13 A2996 RMK A01 T01400132  RH  095%=      5-min Rain = 0
KLO1 240227Z 02021KT 14/13 A2996 RMK A01 T01400132  RH  095%=      5-min Rain = 0
KLO1 240228Z 02020KT 14/13 A2996 RMK A01 T01400132  RH  095%=      5-min Rain = 0
KLO1 240229Z 01017KT 14/13 A2996 RMK A01 T01400133  RH  095%=      5-min Rain = 0
KLO1 240230Z 01017KT 14/13 A2996 RMK A01 T01400133  RH  095%=      5-min Rain = 0
KLO1 240231Z 01017KT 14/13 A2996 RMK A01 T01400133  RH  095%=      5-min Rain = 0
KLO1 240232Z 01018KT 14/13 A2996 RMK A01 T01410133  RH  095%=      5-min Rain = 0
KLO1 240233Z 02016KT 14/13 A2996 RMK A01 T01410133  RH  095%=      5-min Rain = 0
KLO1 240234Z 02016KT 14/13 A2997 RMK A01 T01410133  RH  095%=      5-min Rain = 0
KLO1 240235Z 02013KT 14/13 A2997 RMK A01 T01410133  RH  095%=      5-min Rain = 0
KLO1 240236Z 03014KT 14/13 A2998 RMK A01 T01410133  RH  095%=      5-min Rain = 0
KLO1 240237Z 03015KT 14/13 A2998 RMK A01 T01400133  RH  095%=      5-min Rain = 0
KLO1 240238Z 04013KT 14/13 A2999 RMK A01 T01400133  RH  095%=      5-min Rain = 0
KLO1 240239Z 05010KT 14/13 A2999 RMK A01 T01400132  RH  095%=      5-min Rain = 0
KLO1 240240Z 05012KT 14/13 A30 RMK A01 T01400133  RH  095%=      5-min Rain = 0
KLO1 240241Z 05011KT 14/13 A3001 RMK A01 T01400132  RH  095%=      5-min Rain = 0
KLO1 240242Z 06009KT 14/13 A3001 RMK A01 T01400132  RH  095%=      5-min Rain = 0
KLO1 240243Z 06009KT 14/13 A3001 RMK A01 T01400132  RH  095%=      5-min Rain = 0
KLO1 240244Z 06010KT 14/13 A3001 RMK A01 T01400133  RH  095%=      5-min Rain = 0
KLO1 240245Z 05010KT 14/13 A3001 RMK A01 T01400133  RH  095%=      5-min Rain = 0
KLO1 240246Z 04012KT 14/13 A3001 RMK A01 T01400133  RH  095%=      5-min Rain = 0
KLO1 240247Z 04011KT 14/13 A3001 RMK A01 T01400132  RH  095%=      5-min Rain = 0.01
KLO1 240248Z 05012KT 14/13 A3001 RMK A01 T01400133  RH  095%=      5-min Rain = 0
KLO1 240249Z 05011KT 14/13 A3001 RMK A01 T01410133  RH  095%=      5-min Rain = 0
KLO1 240250Z 06010KT 14/13 A3001 RMK A01 T01410133  RH  095%=      5-min Rain = 0
KLO1 240251Z 06011KT 14/13 A3001 RMK A01 T01410133  RH  095%=      5-min Rain = 0
KLO1 240252Z 06010KT 14/13 A3002 RMK A01 T01410133  RH  095%=      5-min Rain = 0
KLO1 240253Z 06010KT 14/13 A3003 RMK A01 T01410133  RH  095%=      5-min Rain = 0.01
KLO1 240254Z 06008KT 14/13 A3003 RMK A01 T01410133  RH  095%=      5-min Rain = 0
KLO1 240255Z 07006KT 14/13 A3004 RMK A01 T01410133  RH  095%=      5-min Rain = 0
KLO1 240256Z 06006KT 14/13 A3004 RMK A01 T01400133  RH  095%=      5-min Rain = 0
KLO1 240257Z 05005KT 14/13 A3005 RMK A01 T01400133  RH  095%=      5-min Rain = 0.01
KLO1 240258Z 04007KT 14/13 A3005 RMK A01 T01400133  RH  095%=      5-min Rain = 0
KLO1 240259Z 04008KT 14/13 A3005 RMK A01 T01410133  RH  095%=      5-min Rain = 0.01
KLO1 240300Z 05007KT 14/13 A3004 RMK A01 T01410133  RH  095%=      5-min Rain = 0
KLO1 240301Z 05008KT 14/13 A3004 RMK A01 T01420134  RH  095%=      5-min Rain = 0.01
KLO1 240302Z 06007KT 14/13 A3004 RMK A01 T01410134  RH  095%=      5-min Rain = 0.01
KLO1 240303Z 08007KT 14/13 A3004 RMK A01 T01410134  RH  095%=      5-min Rain = 0.01
KLO1 240304Z 08010KT 14/13 A3003 RMK A01 T01410134  RH  095%=      5-min Rain = 0.02
KLO1 240305Z 08011KT 14/13 A3003 RMK A01 T01410134  RH  095%=      5-min Rain = 0.01
KLO1 240306Z 08011KT 14/13 A3002 RMK A01 T01400133  RH  095%=      5-min Rain = 0
KLO1 240307Z 07011KT 14/13 A3002 RMK A01 T01400133  RH  095%=      5-min Rain = 0.01
KLO1 240308Z 08013KT 14/13 A3001 RMK A01 T01400133  RH  095%=      5-min Rain = 0
KLO1 240309Z 08012KT 14/13 A3001 RMK A01 T01400133  RH  095%=      5-min Rain = 0.01
KLO1 240310Z 07012KT 14/13 A30 RMK A01 T01400133  RH  096%=      5-min Rain = 0
KLO1 240311Z 07013KT 14/13 A30 RMK A01 T01400133  RH  096%=      5-min Rain = 0
KLO1 240312Z 07011KT 14/13 A30 RMK A01 T01400133  RH  096%=      5-min Rain = 0
KLO1 240313Z 05012KT 14/13 A3001 RMK A01 T01400133  RH  096%=      5-min Rain = 0
KLO1 240314Z 03011KT 14/13 A3001 RMK A01 T01400133  RH  096%=      5-min Rain = 0
KLO1 240315Z 01011KT 14/13 A3002 RMK A01 T01400133  RH  096%=      5-min Rain = 0.01
KLO1 240316Z 35011KT 14/13 A3003 RMK A01 T01400133  RH  096%=      5-min Rain = 0
KLO1 240317Z 35013KT 14/13 A3004 RMK A01 T01400133  RH  096%=      5-min Rain = 0
KLO1 240318Z 35012KT 14/13 A3004 RMK A01 T01400133  RH  096%=      5-min Rain = 0
KLO1 240319Z 35014KT 14/13 A3004 RMK A01 T01400133  RH  096%=      5-min Rain = 0
KLO1 240320Z 35010KT 14/13 A3003 RMK A01 T01400133  RH  096%=      5-min Rain = 0
KLO1 240321Z 00012KT 14/13 A3003 RMK A01 T01400133  RH  096%=      5-min Rain = 0
KLO1 240322Z 00011KT 14/13 A3003 RMK A01 T01400133  RH  095%=      5-min Rain = 0
KLO1 240323Z 02012KT 14/13 A3002 RMK A01 T01400133  RH  095%=      5-min Rain = 0
KLO1 240324Z 02015KT 14/13 A3001 RMK A01 T01400133  RH  095%=      5-min Rain = 0.01
KLO1 240325Z 02017KT 14/13 A3001 RMK A01 T01400133  RH  095%=      5-min Rain = 0
KLO1 240326Z 02016KT 14/13 A3001 RMK A01 T01400133  RH  095%=      5-min Rain = 0
KLO1 240327Z 02017KT 14/13 A3001 RMK A01 T01400133  RH  095%=      5-min Rain = 0
KLO1 240328Z 01016KT 14/13 A3001 RMK A01 T01400133  RH  095%=      5-min Rain = 0
KLO1 240329Z 01015KT 14/13 A3001 RMK A01 T01400133  RH  095%=      5-min Rain = 0
KLO1 240330Z 01016KT 14/13 A3001 RMK A01 T01400133  RH  095%=      5-min Rain = 0
KLO1 240331Z 01015KT 14/13 A3001 RMK A01 T01410133  RH  095%=      5-min Rain = 0
KLO1 240332Z 02017KT 14/13 A3001 RMK A01 T01410134  RH  095%=      5-min Rain = 0
KLO1 240333Z 02018KT 14/13 A3001 RMK A01 T01410133  RH  095%=      5-min Rain = 0
KLO1 240334Z 03017KT 14/13 A3001 RMK A01 T01400133  RH  095%=      5-min Rain = 0
KLO1 240335Z 03014KT 14/13 A30 RMK A01 T01400132  RH  095%=      5-min Rain = 0
KLO1 240336Z 03014KT 14/13 A30 RMK A01 T01400132  RH  095%=      5-min Rain = 0
KLO1 240337Z 03017KT 14/13 A30 RMK A01 T01400133  RH  095%=      5-min Rain = 0
KLO1 240338Z 03016KT 14/13 A2999 RMK A01 T01400133  RH  095%=      5-min Rain = 0
KLO1 240339Z 03018G24KT 14/13 A2999 RMK A01 T01400133  RH  095%=      5-min Rain = 0
KLO1 240340Z 03021KT 14/13 A2998 RMK A01 T01400132  RH  095%=      5-min Rain = 0
KLO1 240341Z 03017KT 14/13 A2998 RMK A01 T01390131  RH  095%=      5-min Rain = 0
KLO1 240342Z 03019KT 14/13 A2998 RMK A01 T01390131  RH  095%=      5-min Rain = 0
KLO1 240343Z 03021KT 14/13 A2998 RMK A01 T01400132  RH  095%=      5-min Rain = 0
KLO1 240344Z 02017KT 14/13 A2998 RMK A01 T01400131  RH  095%=      5-min Rain = 0
KLO1 240345Z 01015G20KT 14/13 A2999 RMK A01 T01400132  RH  095%=      5-min Rain = 0
KLO1 240346Z 01014KT 14/13 A2999 RMK A01 T01400132  RH  095%=      5-min Rain = 0
KLO1 240347Z 00015KT 14/13 A2999 RMK A01 T01400132  RH  095%=      5-min Rain = 0
KLO1 240348Z 00013KT 14/13 A30 RMK A01 T01400131  RH  095%=      5-min Rain = 0
KLO1 240349Z 00012G17KT 14/13 A30 RMK A01 T01400131  RH  095%=      5-min Rain = 0
KLO1 240350Z 00015G20KT 14/13 A30 RMK A01 T01390131  RH  094%=      5-min Rain = 0
KLO1 240351Z 36013KT 14/13 A30 RMK A01 T01400131  RH  094%=      5-min Rain = 0
KLO1 240352Z 00016KT 14/13 A30 RMK A01 T01400131  RH  094%=      5-min Rain = 0
KLO1 240353Z 00013KT 14/13 A30 RMK A01 T01400130  RH  094%=      5-min Rain = 0
KLO1 240354Z 01013KT 14/13 A30 RMK A01 T01400130  RH  094%=      5-min Rain = 0
KLO1 240355Z 36012KT 14/13 A30 RMK A01 T01400130  RH  094%=      5-min Rain = 0
KLO1 240356Z 35010KT 14/13 A30 RMK A01 T01400130  RH  094%=      5-min Rain = 0
KLO1 240357Z 00012G17KT 14/13 A30 RMK A01 T01400130  RH  094%=      5-min Rain = 0
KLO1 240358Z 01013KT 14/13 A30 RMK A01 T01390130  RH  094%=      5-min Rain = 0
KLO1 240359Z 01014KT 14/13 A30 RMK A01 T01400130  RH  094%=      5-min Rain = 0
KLO1 240400Z 02013KT 14/13 A2999 RMK A01 T01400130  RH  094%=      5-min Rain = 0
KLO1 240401Z 02013KT 14/13 A2999 RMK A01 T01400130  RH  094%=      5-min Rain = 0
KLO1 240402Z 03011KT 14/13 A2999 RMK A01 T01390130  RH  094%=      5-min Rain = 0
KLO1 240403Z 04011KT 14/13 A2999 RMK A01 T01400130  RH  094%=      5-min Rain = 0
KLO1 240404Z 03014KT 14/13 A2999 RMK A01 T01400130  RH  094%=      5-min Rain = 0
KLO1 240405Z 03014KT 14/13 A2999 RMK A01 T01390130  RH  094%=      5-min Rain = 0
KLO1 240406Z 03012KT 14/13 A2999 RMK A01 T01390130  RH  094%=      5-min Rain = 0
KLO1 240407Z 03014KT 14/13 A2999 RMK A01 T01390130  RH  094%=      5-min Rain = 0
KLO1 240408Z 04013KT 14/13 A2999 RMK A01 T01390130  RH  094%=      5-min Rain = 0
KLO1 240409Z 03012KT 14/13 A2999 RMK A01 T01390130  RH  094%=      5-min Rain = 0
KLO1 240410Z 03011KT 14/13 A2999 RMK A01 T01390129  RH  094%=      5-min Rain = 0
KLO1 240411Z 03011KT 14/13 A2999 RMK A01 T01390130  RH  094%=      5-min Rain = 0
KLO1 240412Z 02013KT 14/13 A30 RMK A01 T01390130  RH  094%=      5-min Rain = 0
KLO1 240413Z 02010KT 14/13 A30 RMK A01 T01390130  RH  094%=      5-min Rain = 0
KLO1 240414Z 02013KT 14/13 A2999 RMK A01 T01390130  RH  094%=      5-min Rain = 0
KLO1 240415Z 02012KT 14/13 A2999 RMK A01 T01400130  RH  094%=      5-min Rain = 0
KLO1 240416Z 02011KT 14/13 A2999 RMK A01 T01400130  RH  094%=      5-min Rain = 0
KLO1 240417Z 01008KT 14/13 A2999 RMK A01 T01400130  RH  094%=      5-min Rain = 0
KLO1 240418Z 01009KT 14/13 A2999 RMK A01 T01400130  RH  094%=      5-min Rain = 0
KLO1 240419Z 01009KT 14/13 A30 RMK A01 T01400130  RH  094%=      5-min Rain = 0
KLO1 240420Z 36009KT 14/13 A30 RMK A01 T01390129  RH  094%=      5-min Rain = 0
KLO1 240421Z 00009KT 14/13 A30 RMK A01 T01400129  RH  093%=      5-min Rain = 0
KLO1 240422Z 01011KT 14/13 A30 RMK A01 T01400129  RH  093%=      5-min Rain = 0
KLO1 240423Z 01012KT 14/13 A30 RMK A01 T01400129  RH  093%=      5-min Rain = 0
KLO1 240424Z 01009KT 14/13 A30 RMK A01 T01400129  RH  093%=      5-min Rain = 0
KLO1 240425Z 35008KT 14/13 A30 RMK A01 T01400129  RH  093%=      5-min Rain = 0
KLO1 240426Z 00009KT 14/13 A30 RMK A01 T01400129  RH  093%=      5-min Rain = 0
KLO1 240427Z 36009KT 14/13 A3001 RMK A01 T01400128  RH  093%=      5-min Rain = 0
KLO1 240428Z 34008KT 14/13 A3001 RMK A01 T01410128  RH  092%=      5-min Rain = 0
KLO1 240429Z 35008KT 14/13 A3001 RMK A01 T01410129  RH  092%=      5-min Rain = 0
KLO1 240430Z 35008KT 14/13 A3001 RMK A01 T01410129  RH  092%=      5-min Rain = 0
KLO1 240431Z 35009KT 14/13 A3001 RMK A01 T01410129  RH  092%=      5-min Rain = 0
KLO1 240432Z 35010KT 14/13 A3001 RMK A01 T01410129  RH  092%=      5-min Rain = 0
KLO1 240433Z 35011KT 14/13 A3001 RMK A01 T01410129  RH  092%=      5-min Rain = 0.01
KLO1 240434Z 34011KT 14/13 A3001 RMK A01 T01410129  RH  092%=      5-min Rain = 0
KLO1 240435Z 34012KT 14/13 A3001 RMK A01 T01410129  RH  092%=      5-min Rain = 0
KLO1 240436Z 34016KT 14/13 A3001 RMK A01 T01420130  RH  093%=      5-min Rain = 0
KLO1 240437Z 33016KT 14/13 A3001 RMK A01 T01410130  RH  093%=      5-min Rain = 0
KLO1 240438Z 33016KT 14/13 A3001 RMK A01 T01410130  RH  093%=      5-min Rain = 0
KLO1 240439Z 34015KT 14/13 A30 RMK A01 T01410130  RH  093%=      5-min Rain = 0
KLO1 240440Z 34018KT 14/13 A30 RMK A01 T01410130  RH  093%=      5-min Rain = 0
KLO1 240441Z 33021KT 14/13 A30 RMK A01 T01410130  RH  093%=      5-min Rain = 0
KLO1 240442Z 34022KT 14/13 A30 RMK A01 T01410130  RH  093%=      5-min Rain = 0
KLO1 240443Z 34023KT 14/13 A2999 RMK A01 T01410130  RH  093%=      5-min Rain = 0.01
KLO1 240444Z 34022KT 14/13 A2999 RMK A01 T01410130  RH  093%=      5-min Rain = 0
KLO1 240445Z 34025KT 14/13 A2998 RMK A01 T01410130  RH  093%=      5-min Rain = 0
KLO1 240446Z 35022KT 14/13 A2997 RMK A01 T01410128  RH  092%=      5-min Rain = 0
KLO1 240447Z 35019G24KT 14/13 A2996 RMK A01 T01400129  RH  093%=      5-min Rain = 0
KLO1 240448Z 35023G28KT 14/13 A2994 RMK A01 T01400128  RH  092%=      5-min Rain = 0
KLO1 240449Z 00021G26KT 14/13 A2993 RMK A01 T01400127  RH  092%=      5-min Rain = 0
KLO1 240450Z 01025KT 14/13 A2992 RMK A01 T01390127  RH  092%=      5-min Rain = 0
KLO1 240451Z 01026KT 14/13 A2991 RMK A01 T01390127  RH  093%=      5-min Rain = 0
KLO1 240452Z 01020KT 14/13 A2991 RMK A01 T01380127  RH  093%=      5-min Rain = 0
KLO1 240453Z 02023G28KT 14/13 A2992 RMK A01 T01380127  RH  093%=      5-min Rain = 0
KLO1 240454Z 02022G31KT 14/13 A2993 RMK A01 T01370126  RH  093%=      5-min Rain = 0
KLO1 240455Z 02024G29KT 14/13 A2993 RMK A01 T01370126  RH  093%=      5-min Rain = 0
KLO1 240456Z 03022G27KT 14/13 A2993 RMK A01 T01370127  RH  093%=      5-min Rain = 0
KLO1 240457Z 04024KT 14/13 A2992 RMK A01 T01370127  RH  093%=      5-min Rain = 0
KLO1 240458Z 04023G28KT 14/13 A2992 RMK A01 T01370126  RH  093%=      5-min Rain = 0
KLO1 240459Z 05024G30KT 14/13 A2992 RMK A01 T01370126  RH  093%=      5-min Rain = 0

Page generated in 0.0751 seconds.